<?xml version="1.0" encoding="UTF-8" standalone="no" ?>
<gpx xmlns="http://www.topografix.com/GPX/1/1" xmlns:xsi="http://www.w3.org/2001/XMLSchema-instance" xsi:schemaLocation="http://www.topografix.com/GPX/1/1 http://www.topografix.com/GPX/1/1/gpx.xsd" version="1.1" creator="VisuGPX - https://www.visugpx.com">
  <metadata>
    <name>regagnas 2022</name>
  </metadata>
  <trk>
    <name><![CDATA[Tracé 001]]></name>
    <trkseg>
      <trkpt lat="43.414" lon="5.66665">
        <ele>358.708984375</ele>
        <time>2019-02-17T09:09:28Z</time>
      </trkpt>
      <trkpt lat="43.41399" lon="5.66666">
        <ele>358.708984375</ele>
        <time>2019-02-17T09:09:29Z</time>
      </trkpt>
      <trkpt lat="43.41399" lon="5.66667">
        <ele>358.708984375</ele>
        <time>2019-02-17T09:09:30Z</time>
      </trkpt>
      <trkpt lat="43.4139" lon="5.66689">
        <ele>358.708984375</ele>
        <time>2019-02-17T09:09:45Z</time>
      </trkpt>
      <trkpt lat="43.41375" lon="5.66729">
        <ele>358.708984375</ele>
        <time>2019-02-17T09:10:09Z</time>
      </trkpt>
      <trkpt lat="43.41383" lon="5.66743">
        <ele>359.18969726562</ele>
        <time>2019-02-17T09:10:19Z</time>
      </trkpt>
      <trkpt lat="43.41388" lon="5.66744">
        <ele>359.18969726562</ele>
        <time>2019-02-17T09:10:31Z</time>
      </trkpt>
      <trkpt lat="43.41399" lon="5.66747">
        <ele>359.67041015625</ele>
        <time>2019-02-17T09:10:54Z</time>
      </trkpt>
      <trkpt lat="43.41417" lon="5.66759">
        <ele>360.15112304688</ele>
        <time>2019-02-17T09:11:07Z</time>
      </trkpt>
      <trkpt lat="43.41429" lon="5.66765">
        <ele>360.63171386719</ele>
        <time>2019-02-17T09:11:19Z</time>
      </trkpt>
      <trkpt lat="43.41449" lon="5.66772">
        <ele>361.11242675781</ele>
        <time>2019-02-17T09:11:36Z</time>
      </trkpt>
      <trkpt lat="43.41459" lon="5.66779">
        <ele>362.55432128906</ele>
        <time>2019-02-17T09:11:46Z</time>
      </trkpt>
      <trkpt lat="43.41469" lon="5.66804">
        <ele>363.51574707031</ele>
        <time>2019-02-17T09:12:03Z</time>
      </trkpt>
      <trkpt lat="43.41469" lon="5.66806">
        <ele>363.03503417969</ele>
        <time>2019-02-17T09:12:05Z</time>
      </trkpt>
      <trkpt lat="43.4148" lon="5.66836">
        <ele>363.03503417969</ele>
        <time>2019-02-17T09:12:24Z</time>
      </trkpt>
      <trkpt lat="43.41497" lon="5.66872">
        <ele>362.55432128906</ele>
        <time>2019-02-17T09:12:50Z</time>
      </trkpt>
      <trkpt lat="43.41528" lon="5.66917">
        <ele>360.63171386719</ele>
        <time>2019-02-17T09:13:27Z</time>
      </trkpt>
      <trkpt lat="43.41556" lon="5.66939">
        <ele>357.74780273438</ele>
        <time>2019-02-17T09:13:54Z</time>
      </trkpt>
      <trkpt lat="43.41575" lon="5.66954">
        <ele>357.26708984375</ele>
        <time>2019-02-17T09:14:14Z</time>
      </trkpt>
      <trkpt lat="43.41587" lon="5.6696">
        <ele>355.8251953125</ele>
        <time>2019-02-17T09:14:25Z</time>
      </trkpt>
      <trkpt lat="43.41605" lon="5.66968">
        <ele>355.34448242188</ele>
        <time>2019-02-17T09:14:38Z</time>
      </trkpt>
      <trkpt lat="43.41625" lon="5.66976">
        <ele>352.46057128906</ele>
        <time>2019-02-17T09:14:56Z</time>
      </trkpt>
      <trkpt lat="43.41641" lon="5.66986">
        <ele>349.57653808594</ele>
        <time>2019-02-17T09:15:12Z</time>
      </trkpt>
      <trkpt lat="43.41665" lon="5.66983">
        <ele>346.69262695312</ele>
        <time>2019-02-17T09:15:32Z</time>
      </trkpt>
      <trkpt lat="43.41674" lon="5.66985">
        <ele>345.25061035156</ele>
        <time>2019-02-17T09:15:40Z</time>
      </trkpt>
      <trkpt lat="43.41695" lon="5.66992">
        <ele>342.36669921875</ele>
        <time>2019-02-17T09:16:01Z</time>
      </trkpt>
      <trkpt lat="43.41708" lon="5.66994">
        <ele>340.44409179688</ele>
        <time>2019-02-17T09:16:14Z</time>
      </trkpt>
      <trkpt lat="43.41718" lon="5.66997">
        <ele>339.00207519531</ele>
        <time>2019-02-17T09:16:27Z</time>
      </trkpt>
      <trkpt lat="43.41726" lon="5.67004">
        <ele>337.07946777344</ele>
        <time>2019-02-17T09:16:42Z</time>
      </trkpt>
      <trkpt lat="43.41743" lon="5.67007">
        <ele>334.67614746094</ele>
        <time>2019-02-17T09:16:58Z</time>
      </trkpt>
      <trkpt lat="43.41763" lon="5.67012">
        <ele>331.79211425781</ele>
        <time>2019-02-17T09:17:15Z</time>
      </trkpt>
      <trkpt lat="43.41782" lon="5.67026">
        <ele>327.94677734375</ele>
        <time>2019-02-17T09:17:34Z</time>
      </trkpt>
      <trkpt lat="43.418" lon="5.67037">
        <ele>325.06298828125</ele>
        <time>2019-02-17T09:17:54Z</time>
      </trkpt>
      <trkpt lat="43.41804" lon="5.67042">
        <ele>324.1015625</ele>
        <time>2019-02-17T09:17:59Z</time>
      </trkpt>
      <trkpt lat="43.4182" lon="5.67049">
        <ele>320.73706054688</ele>
        <time>2019-02-17T09:18:16Z</time>
      </trkpt>
      <trkpt lat="43.41838" lon="5.67056">
        <ele>318.81433105469</ele>
        <time>2019-02-17T09:18:35Z</time>
      </trkpt>
      <trkpt lat="43.41847" lon="5.67058">
        <ele>318.81433105469</ele>
        <time>2019-02-17T09:18:43Z</time>
      </trkpt>
      <trkpt lat="43.4186" lon="5.67074">
        <ele>318.81433105469</ele>
        <time>2019-02-17T09:19:01Z</time>
      </trkpt>
      <trkpt lat="43.41868" lon="5.6708">
        <ele>319.29504394531</ele>
        <time>2019-02-17T09:19:09Z</time>
      </trkpt>
      <trkpt lat="43.41877" lon="5.67077">
        <ele>319.77563476562</ele>
        <time>2019-02-17T09:19:16Z</time>
      </trkpt>
      <trkpt lat="43.41892" lon="5.67073">
        <ele>320.25634765625</ele>
        <time>2019-02-17T09:19:29Z</time>
      </trkpt>
      <trkpt lat="43.41894" lon="5.67072">
        <ele>320.73706054688</ele>
        <time>2019-02-17T09:19:31Z</time>
      </trkpt>
      <trkpt lat="43.41916" lon="5.67066">
        <ele>320.25634765625</ele>
        <time>2019-02-17T09:19:47Z</time>
      </trkpt>
      <trkpt lat="43.41926" lon="5.67059">
        <ele>321.2177734375</ele>
        <time>2019-02-17T09:19:59Z</time>
      </trkpt>
      <trkpt lat="43.41928" lon="5.67056">
        <ele>321.2177734375</ele>
        <time>2019-02-17T09:20:02Z</time>
      </trkpt>
      <trkpt lat="43.41928" lon="5.67053">
        <ele>321.2177734375</ele>
        <time>2019-02-17T09:20:04Z</time>
      </trkpt>
      <trkpt lat="43.41926" lon="5.67046">
        <ele>321.69836425781</ele>
        <time>2019-02-17T09:20:08Z</time>
      </trkpt>
      <trkpt lat="43.41924" lon="5.67039">
        <ele>321.69836425781</ele>
        <time>2019-02-17T09:20:13Z</time>
      </trkpt>
      <trkpt lat="43.41923" lon="5.67036">
        <ele>322.17895507812</ele>
        <time>2019-02-17T09:20:15Z</time>
      </trkpt>
      <trkpt lat="43.41923" lon="5.67031">
        <ele>322.65966796875</ele>
        <time>2019-02-17T09:20:19Z</time>
      </trkpt>
      <trkpt lat="43.41924" lon="5.67028">
        <ele>322.65966796875</ele>
        <time>2019-02-17T09:20:21Z</time>
      </trkpt>
      <trkpt lat="43.41924" lon="5.67026">
        <ele>323.14038085938</ele>
        <time>2019-02-17T09:20:23Z</time>
      </trkpt>
      <trkpt lat="43.4193" lon="5.66998">
        <ele>324.58227539062</ele>
        <time>2019-02-17T09:20:43Z</time>
      </trkpt>
      <trkpt lat="43.41944" lon="5.66989">
        <ele>325.54357910156</ele>
        <time>2019-02-17T09:20:59Z</time>
      </trkpt>
      <trkpt lat="43.41957" lon="5.66987">
        <ele>326.02416992188</ele>
        <time>2019-02-17T09:21:11Z</time>
      </trkpt>
      <trkpt lat="43.41975" lon="5.66988">
        <ele>326.98559570312</ele>
        <time>2019-02-17T09:21:28Z</time>
      </trkpt>
      <trkpt lat="43.41986" lon="5.66986">
        <ele>326.98559570312</ele>
        <time>2019-02-17T09:21:37Z</time>
      </trkpt>
      <trkpt lat="43.41987" lon="5.66985">
        <ele>326.98559570312</ele>
        <time>2019-02-17T09:21:38Z</time>
      </trkpt>
      <trkpt lat="43.41986" lon="5.66984">
        <ele>326.98559570312</ele>
        <time>2019-02-17T09:21:40Z</time>
      </trkpt>
      <trkpt lat="43.4201" lon="5.66978">
        <ele>327.46618652344</ele>
        <time>2019-02-17T09:21:54Z</time>
      </trkpt>
      <trkpt lat="43.42028" lon="5.66974">
        <ele>328.42761230469</ele>
        <time>2019-02-17T09:22:06Z</time>
      </trkpt>
      <trkpt lat="43.42043" lon="5.6697">
        <ele>329.38891601562</ele>
        <time>2019-02-17T09:22:17Z</time>
      </trkpt>
      <trkpt lat="43.42059" lon="5.66967">
        <ele>330.35021972656</ele>
        <time>2019-02-17T09:22:29Z</time>
      </trkpt>
      <trkpt lat="43.42072" lon="5.66967">
        <ele>331.79211425781</ele>
        <time>2019-02-17T09:22:41Z</time>
      </trkpt>
      <trkpt lat="43.42082" lon="5.66966">
        <ele>333.23413085938</ele>
        <time>2019-02-17T09:22:49Z</time>
      </trkpt>
      <trkpt lat="43.42084" lon="5.66965">
        <ele>332.75354003906</ele>
        <time>2019-02-17T09:22:51Z</time>
      </trkpt>
      <trkpt lat="43.42095" lon="5.66961">
        <ele>334.19543457031</ele>
        <time>2019-02-17T09:23:02Z</time>
      </trkpt>
      <trkpt lat="43.42104" lon="5.66958">
        <ele>335.15673828125</ele>
        <time>2019-02-17T09:23:11Z</time>
      </trkpt>
      <trkpt lat="43.42115" lon="5.66955">
        <ele>335.63732910156</ele>
        <time>2019-02-17T09:23:21Z</time>
      </trkpt>
      <trkpt lat="43.42124" lon="5.66952">
        <ele>337.07946777344</ele>
        <time>2019-02-17T09:23:31Z</time>
      </trkpt>
      <trkpt lat="43.42137" lon="5.66949">
        <ele>338.521484375</ele>
        <time>2019-02-17T09:23:46Z</time>
      </trkpt>
      <trkpt lat="43.42153" lon="5.66944">
        <ele>339.48266601562</ele>
        <time>2019-02-17T09:24:01Z</time>
      </trkpt>
      <trkpt lat="43.42167" lon="5.66942">
        <ele>341.4052734375</ele>
        <time>2019-02-17T09:24:12Z</time>
      </trkpt>
      <trkpt lat="43.42177" lon="5.66941">
        <ele>342.84729003906</ele>
        <time>2019-02-17T09:24:24Z</time>
      </trkpt>
      <trkpt lat="43.42185" lon="5.66938">
        <ele>344.28942871094</ele>
        <time>2019-02-17T09:24:35Z</time>
      </trkpt>
      <trkpt lat="43.42192" lon="5.66938">
        <ele>345.73132324219</ele>
        <time>2019-02-17T09:24:46Z</time>
      </trkpt>
      <trkpt lat="43.42203" lon="5.66939">
        <ele>347.17321777344</ele>
        <time>2019-02-17T09:24:59Z</time>
      </trkpt>
      <trkpt lat="43.42203" lon="5.66939">
        <ele>347.17321777344</ele>
        <time>2019-02-17T09:25:00Z</time>
      </trkpt>
      <trkpt lat="43.42209" lon="5.66937">
        <ele>347.17321777344</ele>
        <time>2019-02-17T09:25:04Z</time>
      </trkpt>
      <trkpt lat="43.42211" lon="5.6694">
        <ele>347.17321777344</ele>
        <time>2019-02-17T09:25:08Z</time>
      </trkpt>
      <trkpt lat="43.42214" lon="5.66946">
        <ele>348.13464355469</ele>
        <time>2019-02-17T09:25:14Z</time>
      </trkpt>
      <trkpt lat="43.42215" lon="5.66952">
        <ele>348.13464355469</ele>
        <time>2019-02-17T09:25:18Z</time>
      </trkpt>
      <trkpt lat="43.42218" lon="5.66982">
        <ele>347.17321777344</ele>
        <time>2019-02-17T09:25:39Z</time>
      </trkpt>
      <trkpt lat="43.42222" lon="5.67025">
        <ele>347.17321777344</ele>
        <time>2019-02-17T09:26:05Z</time>
      </trkpt>
      <trkpt lat="43.42239" lon="5.67045">
        <ele>347.65393066406</ele>
        <time>2019-02-17T09:26:25Z</time>
      </trkpt>
      <trkpt lat="43.42247" lon="5.67038">
        <ele>348.615234375</ele>
        <time>2019-02-17T09:26:38Z</time>
      </trkpt>
      <trkpt lat="43.4225" lon="5.67041">
        <ele>349.09582519531</ele>
        <time>2019-02-17T09:26:55Z</time>
      </trkpt>
      <trkpt lat="43.42249" lon="5.67043">
        <ele>350.05725097656</ele>
        <time>2019-02-17T09:27:38Z</time>
      </trkpt>
      <trkpt lat="43.42249" lon="5.67044">
        <ele>351.49914550781</ele>
        <time>2019-02-17T09:28:42Z</time>
      </trkpt>
      <trkpt lat="43.42249" lon="5.67046">
        <ele>352.46057128906</ele>
        <time>2019-02-17T09:29:19Z</time>
      </trkpt>
      <trkpt lat="43.42248" lon="5.67046">
        <ele>354.38317871094</ele>
        <time>2019-02-17T09:30:13Z</time>
      </trkpt>
      <trkpt lat="43.42252" lon="5.67045">
        <ele>354.86376953125</ele>
        <time>2019-02-17T09:30:32Z</time>
      </trkpt>
      <trkpt lat="43.4226" lon="5.67044">
        <ele>355.34448242188</ele>
        <time>2019-02-17T09:30:43Z</time>
      </trkpt>
      <trkpt lat="43.42271" lon="5.67036">
        <ele>356.78637695312</ele>
        <time>2019-02-17T09:30:56Z</time>
      </trkpt>
      <trkpt lat="43.42275" lon="5.6703">
        <ele>358.22839355469</ele>
        <time>2019-02-17T09:31:04Z</time>
      </trkpt>
      <trkpt lat="43.42294" lon="5.67015">
        <ele>360.15112304688</ele>
        <time>2019-02-17T09:31:23Z</time>
      </trkpt>
      <trkpt lat="43.42311" lon="5.67001">
        <ele>361.59313964844</ele>
        <time>2019-02-17T09:31:43Z</time>
      </trkpt>
      <trkpt lat="43.4232" lon="5.66995">
        <ele>363.03503417969</ele>
        <time>2019-02-17T09:31:55Z</time>
      </trkpt>
      <trkpt lat="43.42336" lon="5.66982">
        <ele>364.47692871094</ele>
        <time>2019-02-17T09:32:11Z</time>
      </trkpt>
      <trkpt lat="43.42343" lon="5.66974">
        <ele>365.43835449219</ele>
        <time>2019-02-17T09:32:22Z</time>
      </trkpt>
      <trkpt lat="43.4235" lon="5.66968">
        <ele>366.88024902344</ele>
        <time>2019-02-17T09:32:34Z</time>
      </trkpt>
      <trkpt lat="43.42362" lon="5.66958">
        <ele>368.322265625</ele>
        <time>2019-02-17T09:32:49Z</time>
      </trkpt>
      <trkpt lat="43.42364" lon="5.66957">
        <ele>368.80297851562</ele>
        <time>2019-02-17T09:32:51Z</time>
      </trkpt>
      <trkpt lat="43.42369" lon="5.6696">
        <ele>369.76428222656</ele>
        <time>2019-02-17T09:33:02Z</time>
      </trkpt>
      <trkpt lat="43.42369" lon="5.66963">
        <ele>370.24487304688</ele>
        <time>2019-02-17T09:33:05Z</time>
      </trkpt>
      <trkpt lat="43.42364" lon="5.66996">
        <ele>372.64819335938</ele>
        <time>2019-02-17T09:33:29Z</time>
      </trkpt>
      <trkpt lat="43.42355" lon="5.67017">
        <ele>373.60949707031</ele>
        <time>2019-02-17T09:33:45Z</time>
      </trkpt>
      <trkpt lat="43.42341" lon="5.67046">
        <ele>375.53210449219</ele>
        <time>2019-02-17T09:34:09Z</time>
      </trkpt>
      <trkpt lat="43.42334" lon="5.67082">
        <ele>377.93542480469</ele>
        <time>2019-02-17T09:34:33Z</time>
      </trkpt>
      <trkpt lat="43.42344" lon="5.67107">
        <ele>379.37744140625</ele>
        <time>2019-02-17T09:34:54Z</time>
      </trkpt>
      <trkpt lat="43.42357" lon="5.67136">
        <ele>380.81945800781</ele>
        <time>2019-02-17T09:35:17Z</time>
      </trkpt>
      <trkpt lat="43.4237" lon="5.67165">
        <ele>380.33874511719</ele>
        <time>2019-02-17T09:35:39Z</time>
      </trkpt>
      <trkpt lat="43.42391" lon="5.67177">
        <ele>380.81945800781</ele>
        <time>2019-02-17T09:35:59Z</time>
      </trkpt>
      <trkpt lat="43.42425" lon="5.67209">
        <ele>381.30004882812</ele>
        <time>2019-02-17T09:36:29Z</time>
      </trkpt>
      <trkpt lat="43.42427" lon="5.67224">
        <ele>382.26135253906</ele>
        <time>2019-02-17T09:36:36Z</time>
      </trkpt>
      <trkpt lat="43.42421" lon="5.67233">
        <ele>382.26135253906</ele>
        <time>2019-02-17T09:36:44Z</time>
      </trkpt>
      <trkpt lat="43.42416" lon="5.67232">
        <ele>381.78063964844</ele>
        <time>2019-02-17T09:36:48Z</time>
      </trkpt>
      <trkpt lat="43.4239" lon="5.6722">
        <ele>383.70324707031</ele>
        <time>2019-02-17T09:37:10Z</time>
      </trkpt>
      <trkpt lat="43.42356" lon="5.67204">
        <ele>385.14538574219</ele>
        <time>2019-02-17T09:37:39Z</time>
      </trkpt>
      <trkpt lat="43.42337" lon="5.67198">
        <ele>387.54858398438</ele>
        <time>2019-02-17T09:37:56Z</time>
      </trkpt>
      <trkpt lat="43.42317" lon="5.67203">
        <ele>388.99060058594</ele>
        <time>2019-02-17T09:38:12Z</time>
      </trkpt>
      <trkpt lat="43.42297" lon="5.67221">
        <ele>390.91320800781</ele>
        <time>2019-02-17T09:38:33Z</time>
      </trkpt>
      <trkpt lat="43.42287" lon="5.67237">
        <ele>391.39379882812</ele>
        <time>2019-02-17T09:38:51Z</time>
      </trkpt>
      <trkpt lat="43.42286" lon="5.67236">
        <ele>391.87451171875</ele>
        <time>2019-02-17T09:39:13Z</time>
      </trkpt>
      <trkpt lat="43.42286" lon="5.67236">
        <ele>391.87451171875</ele>
        <time>2019-02-17T09:39:20Z</time>
      </trkpt>
      <trkpt lat="43.42284" lon="5.67241">
        <ele>391.87451171875</ele>
        <time>2019-02-17T09:39:26Z</time>
      </trkpt>
      <trkpt lat="43.42271" lon="5.67256">
        <ele>392.8359375</ele>
        <time>2019-02-17T09:39:42Z</time>
      </trkpt>
      <trkpt lat="43.42257" lon="5.67284">
        <ele>394.75854492188</ele>
        <time>2019-02-17T09:40:03Z</time>
      </trkpt>
      <trkpt lat="43.42256" lon="5.67288">
        <ele>394.27795410156</ele>
        <time>2019-02-17T09:40:06Z</time>
      </trkpt>
      <trkpt lat="43.42247" lon="5.67317">
        <ele>394.75854492188</ele>
        <time>2019-02-17T09:40:25Z</time>
      </trkpt>
      <trkpt lat="43.42238" lon="5.67345">
        <ele>395.71984863281</ele>
        <time>2019-02-17T09:40:43Z</time>
      </trkpt>
      <trkpt lat="43.42231" lon="5.67363">
        <ele>396.20056152344</ele>
        <time>2019-02-17T09:40:55Z</time>
      </trkpt>
      <trkpt lat="43.42221" lon="5.67379">
        <ele>395.71984863281</ele>
        <time>2019-02-17T09:41:07Z</time>
      </trkpt>
      <trkpt lat="43.42218" lon="5.6738">
        <ele>396.20056152344</ele>
        <time>2019-02-17T09:41:10Z</time>
      </trkpt>
      <trkpt lat="43.42198" lon="5.67396">
        <ele>399.08435058594</ele>
        <time>2019-02-17T09:41:30Z</time>
      </trkpt>
      <trkpt lat="43.4218" lon="5.67417">
        <ele>401.48779296875</ele>
        <time>2019-02-17T09:41:51Z</time>
      </trkpt>
      <trkpt lat="43.42169" lon="5.6743">
        <ele>403.89111328125</ele>
        <time>2019-02-17T09:42:04Z</time>
      </trkpt>
      <trkpt lat="43.42165" lon="5.67434">
        <ele>403.89111328125</ele>
        <time>2019-02-17T09:42:08Z</time>
      </trkpt>
      <trkpt lat="43.42154" lon="5.67455">
        <ele>405.3330078125</ele>
        <time>2019-02-17T09:42:26Z</time>
      </trkpt>
      <trkpt lat="43.42137" lon="5.67476">
        <ele>407.736328125</ele>
        <time>2019-02-17T09:42:45Z</time>
      </trkpt>
      <trkpt lat="43.42122" lon="5.67492">
        <ele>410.1396484375</ele>
        <time>2019-02-17T09:43:02Z</time>
      </trkpt>
      <trkpt lat="43.42109" lon="5.67518">
        <ele>411.10095214844</ele>
        <time>2019-02-17T09:43:21Z</time>
      </trkpt>
      <trkpt lat="43.42107" lon="5.67524">
        <ele>410.62023925781</ele>
        <time>2019-02-17T09:43:25Z</time>
      </trkpt>
      <trkpt lat="43.42103" lon="5.67563">
        <ele>410.1396484375</ele>
        <time>2019-02-17T09:43:46Z</time>
      </trkpt>
      <trkpt lat="43.42095" lon="5.67601">
        <ele>413.02355957031</ele>
        <time>2019-02-17T09:44:12Z</time>
      </trkpt>
      <trkpt lat="43.42084" lon="5.67633">
        <ele>414.46545410156</ele>
        <time>2019-02-17T09:44:31Z</time>
      </trkpt>
      <trkpt lat="43.42074" lon="5.67668">
        <ele>415.90747070312</ele>
        <time>2019-02-17T09:44:52Z</time>
      </trkpt>
      <trkpt lat="43.42056" lon="5.67692">
        <ele>417.83020019531</ele>
        <time>2019-02-17T09:45:13Z</time>
      </trkpt>
      <trkpt lat="43.42035" lon="5.67704">
        <ele>420.71411132812</ele>
        <time>2019-02-17T09:45:33Z</time>
      </trkpt>
      <trkpt lat="43.42015" lon="5.67714">
        <ele>424.07873535156</ele>
        <time>2019-02-17T09:45:51Z</time>
      </trkpt>
      <trkpt lat="43.41997" lon="5.67721">
        <ele>427.443359375</ele>
        <time>2019-02-17T09:46:09Z</time>
      </trkpt>
      <trkpt lat="43.41982" lon="5.67725">
        <ele>430.80798339844</ele>
        <time>2019-02-17T09:46:26Z</time>
      </trkpt>
      <trkpt lat="43.4197" lon="5.67726">
        <ele>432.73071289062</ele>
        <time>2019-02-17T09:46:41Z</time>
      </trkpt>
      <trkpt lat="43.41958" lon="5.67731">
        <ele>434.6533203125</ele>
        <time>2019-02-17T09:46:57Z</time>
      </trkpt>
      <trkpt lat="43.41949" lon="5.67744">
        <ele>437.05651855469</ele>
        <time>2019-02-17T09:47:11Z</time>
      </trkpt>
      <trkpt lat="43.41949" lon="5.67748">
        <ele>438.01782226562</ele>
        <time>2019-02-17T09:47:15Z</time>
      </trkpt>
      <trkpt lat="43.41939" lon="5.67773">
        <ele>441.38244628906</ele>
        <time>2019-02-17T09:47:37Z</time>
      </trkpt>
      <trkpt lat="43.41931" lon="5.67791">
        <ele>442.82446289062</ele>
        <time>2019-02-17T09:47:51Z</time>
      </trkpt>
      <trkpt lat="43.41925" lon="5.67804">
        <ele>444.7470703125</ele>
        <time>2019-02-17T09:48:05Z</time>
      </trkpt>
      <trkpt lat="43.41921" lon="5.67827">
        <ele>447.15026855469</ele>
        <time>2019-02-17T09:48:22Z</time>
      </trkpt>
      <trkpt lat="43.41922" lon="5.67843">
        <ele>448.59240722656</ele>
        <time>2019-02-17T09:48:40Z</time>
      </trkpt>
      <trkpt lat="43.41923" lon="5.67846">
        <ele>448.59240722656</ele>
        <time>2019-02-17T09:49:06Z</time>
      </trkpt>
      <trkpt lat="43.41922" lon="5.67849">
        <ele>449.07299804688</ele>
        <time>2019-02-17T09:50:07Z</time>
      </trkpt>
      <trkpt lat="43.41922" lon="5.67849">
        <ele>449.5537109375</ele>
        <time>2019-02-17T09:51:18Z</time>
      </trkpt>
      <trkpt lat="43.41922" lon="5.67849">
        <ele>449.07299804688</ele>
        <time>2019-02-17T09:51:37Z</time>
      </trkpt>
      <trkpt lat="43.41922" lon="5.67861">
        <ele>450.99560546875</ele>
        <time>2019-02-17T09:51:57Z</time>
      </trkpt>
      <trkpt lat="43.41915" lon="5.67882">
        <ele>451.95703125</ele>
        <time>2019-02-17T09:52:13Z</time>
      </trkpt>
      <trkpt lat="43.41913" lon="5.67911">
        <ele>451.95703125</ele>
        <time>2019-02-17T09:52:34Z</time>
      </trkpt>
      <trkpt lat="43.41906" lon="5.67946">
        <ele>450.99560546875</ele>
        <time>2019-02-17T09:52:56Z</time>
      </trkpt>
      <trkpt lat="43.41898" lon="5.67977">
        <ele>450.03442382812</ele>
        <time>2019-02-17T09:53:15Z</time>
      </trkpt>
      <trkpt lat="43.4189" lon="5.68006">
        <ele>450.99560546875</ele>
        <time>2019-02-17T09:53:35Z</time>
      </trkpt>
      <trkpt lat="43.41888" lon="5.68043">
        <ele>451.47631835938</ele>
        <time>2019-02-17T09:53:59Z</time>
      </trkpt>
      <trkpt lat="43.41893" lon="5.68073">
        <ele>451.47631835938</ele>
        <time>2019-02-17T09:54:26Z</time>
      </trkpt>
      <trkpt lat="43.41891" lon="5.68115">
        <ele>451.95703125</ele>
        <time>2019-02-17T09:54:49Z</time>
      </trkpt>
      <trkpt lat="43.41891" lon="5.68169">
        <ele>451.47631835938</ele>
        <time>2019-02-17T09:55:14Z</time>
      </trkpt>
      <trkpt lat="43.41897" lon="5.68204">
        <ele>452.43762207031</ele>
        <time>2019-02-17T09:55:33Z</time>
      </trkpt>
      <trkpt lat="43.41904" lon="5.68233">
        <ele>452.91821289062</ele>
        <time>2019-02-17T09:55:52Z</time>
      </trkpt>
      <trkpt lat="43.41905" lon="5.6824">
        <ele>452.43762207031</ele>
        <time>2019-02-17T09:55:56Z</time>
      </trkpt>
      <trkpt lat="43.41905" lon="5.68248">
        <ele>451.95703125</ele>
        <time>2019-02-17T09:56:00Z</time>
      </trkpt>
      <trkpt lat="43.41908" lon="5.68254">
        <ele>451.95703125</ele>
        <time>2019-02-17T09:56:04Z</time>
      </trkpt>
      <trkpt lat="43.41909" lon="5.68266">
        <ele>451.95703125</ele>
        <time>2019-02-17T09:56:10Z</time>
      </trkpt>
      <trkpt lat="43.41904" lon="5.68283">
        <ele>453.39892578125</ele>
        <time>2019-02-17T09:56:23Z</time>
      </trkpt>
      <trkpt lat="43.419" lon="5.6831">
        <ele>456.28295898438</ele>
        <time>2019-02-17T09:56:39Z</time>
      </trkpt>
      <trkpt lat="43.41894" lon="5.68326">
        <ele>458.68615722656</ele>
        <time>2019-02-17T09:56:54Z</time>
      </trkpt>
      <trkpt lat="43.41891" lon="5.68336">
        <ele>459.64758300781</ele>
        <time>2019-02-17T09:57:02Z</time>
      </trkpt>
      <trkpt lat="43.4189" lon="5.68347">
        <ele>461.08947753906</ele>
        <time>2019-02-17T09:57:09Z</time>
      </trkpt>
      <trkpt lat="43.41893" lon="5.6836">
        <ele>461.57019042969</ele>
        <time>2019-02-17T09:57:16Z</time>
      </trkpt>
      <trkpt lat="43.41894" lon="5.68365">
        <ele>462.05078125</ele>
        <time>2019-02-17T09:57:19Z</time>
      </trkpt>
      <trkpt lat="43.41897" lon="5.6837">
        <ele>462.53137207031</ele>
        <time>2019-02-17T09:57:23Z</time>
      </trkpt>
      <trkpt lat="43.419" lon="5.68373">
        <ele>463.01208496094</ele>
        <time>2019-02-17T09:57:27Z</time>
      </trkpt>
      <trkpt lat="43.41901" lon="5.68375">
        <ele>463.49279785156</ele>
        <time>2019-02-17T09:57:29Z</time>
      </trkpt>
      <trkpt lat="43.41908" lon="5.68389">
        <ele>463.97338867188</ele>
        <time>2019-02-17T09:57:40Z</time>
      </trkpt>
      <trkpt lat="43.41912" lon="5.68405">
        <ele>464.93481445312</ele>
        <time>2019-02-17T09:57:50Z</time>
      </trkpt>
      <trkpt lat="43.41912" lon="5.68414">
        <ele>465.89611816406</ele>
        <time>2019-02-17T09:57:59Z</time>
      </trkpt>
      <trkpt lat="43.41904" lon="5.68436">
        <ele>467.81872558594</ele>
        <time>2019-02-17T09:58:15Z</time>
      </trkpt>
      <trkpt lat="43.41891" lon="5.68455">
        <ele>470.22192382812</ele>
        <time>2019-02-17T09:58:32Z</time>
      </trkpt>
      <trkpt lat="43.4188" lon="5.68467">
        <ele>472.14465332031</ele>
        <time>2019-02-17T09:58:46Z</time>
      </trkpt>
      <trkpt lat="43.41877" lon="5.68472">
        <ele>472.62536621094</ele>
        <time>2019-02-17T09:58:53Z</time>
      </trkpt>
      <trkpt lat="43.41873" lon="5.68475">
        <ele>473.10607910156</ele>
        <time>2019-02-17T09:58:58Z</time>
      </trkpt>
      <trkpt lat="43.41866" lon="5.68474">
        <ele>474.54797363281</ele>
        <time>2019-02-17T09:59:05Z</time>
      </trkpt>
      <trkpt lat="43.41858" lon="5.68484">
        <ele>475.50927734375</ele>
        <time>2019-02-17T09:59:20Z</time>
      </trkpt>
      <trkpt lat="43.41854" lon="5.6849">
        <ele>475.98986816406</ele>
        <time>2019-02-17T09:59:27Z</time>
      </trkpt>
      <trkpt lat="43.41846" lon="5.68507">
        <ele>477.43188476562</ele>
        <time>2019-02-17T09:59:40Z</time>
      </trkpt>
      <trkpt lat="43.41835" lon="5.68531">
        <ele>478.87390136719</ele>
        <time>2019-02-17T09:59:55Z</time>
      </trkpt>
      <trkpt lat="43.41828" lon="5.68541">
        <ele>479.3544921875</ele>
        <time>2019-02-17T10:00:09Z</time>
      </trkpt>
      <trkpt lat="43.41823" lon="5.68558">
        <ele>480.31591796875</ele>
        <time>2019-02-17T10:00:25Z</time>
      </trkpt>
      <trkpt lat="43.4182" lon="5.68574">
        <ele>482.23852539062</ele>
        <time>2019-02-17T10:00:37Z</time>
      </trkpt>
      <trkpt lat="43.4182" lon="5.68575">
        <ele>482.23852539062</ele>
        <time>2019-02-17T10:00:38Z</time>
      </trkpt>
      <trkpt lat="43.4182" lon="5.68585">
        <ele>482.71923828125</ele>
        <time>2019-02-17T10:00:43Z</time>
      </trkpt>
      <trkpt lat="43.41815" lon="5.68598">
        <ele>484.1611328125</ele>
        <time>2019-02-17T10:00:58Z</time>
      </trkpt>
      <trkpt lat="43.41812" lon="5.68615">
        <ele>486.08374023438</ele>
        <time>2019-02-17T10:01:17Z</time>
      </trkpt>
      <trkpt lat="43.4181" lon="5.68626">
        <ele>487.04504394531</ele>
        <time>2019-02-17T10:01:25Z</time>
      </trkpt>
      <trkpt lat="43.41806" lon="5.68631">
        <ele>487.52563476562</ele>
        <time>2019-02-17T10:01:31Z</time>
      </trkpt>
      <trkpt lat="43.41797" lon="5.68643">
        <ele>489.44836425781</ele>
        <time>2019-02-17T10:01:44Z</time>
      </trkpt>
      <trkpt lat="43.4179" lon="5.68656">
        <ele>490.89038085938</ele>
        <time>2019-02-17T10:01:59Z</time>
      </trkpt>
      <trkpt lat="43.41783" lon="5.68673">
        <ele>492.81298828125</ele>
        <time>2019-02-17T10:02:14Z</time>
      </trkpt>
      <trkpt lat="43.41769" lon="5.68678">
        <ele>494.73559570312</ele>
        <time>2019-02-17T10:02:28Z</time>
      </trkpt>
      <trkpt lat="43.41755" lon="5.68688">
        <ele>496.65832519531</ele>
        <time>2019-02-17T10:02:45Z</time>
      </trkpt>
      <trkpt lat="43.41744" lon="5.68696">
        <ele>498.10034179688</ele>
        <time>2019-02-17T10:03:02Z</time>
      </trkpt>
      <trkpt lat="43.41739" lon="5.68702">
        <ele>497.61962890625</ele>
        <time>2019-02-17T10:03:24Z</time>
      </trkpt>
      <trkpt lat="43.41729" lon="5.687">
        <ele>500.50354003906</ele>
        <time>2019-02-17T10:03:40Z</time>
      </trkpt>
      <trkpt lat="43.41712" lon="5.68706">
        <ele>503.38745117188</ele>
        <time>2019-02-17T10:03:58Z</time>
      </trkpt>
      <trkpt lat="43.41696" lon="5.68711">
        <ele>505.79089355469</ele>
        <time>2019-02-17T10:04:14Z</time>
      </trkpt>
      <trkpt lat="43.41691" lon="5.68726">
        <ele>507.71350097656</ele>
        <time>2019-02-17T10:04:28Z</time>
      </trkpt>
      <trkpt lat="43.41684" lon="5.68736">
        <ele>508.19409179688</ele>
        <time>2019-02-17T10:04:40Z</time>
      </trkpt>
      <trkpt lat="43.41673" lon="5.68742">
        <ele>509.15539550781</ele>
        <time>2019-02-17T10:04:52Z</time>
      </trkpt>
      <trkpt lat="43.41663" lon="5.6874">
        <ele>510.11669921875</ele>
        <time>2019-02-17T10:05:02Z</time>
      </trkpt>
      <trkpt lat="43.41649" lon="5.68734">
        <ele>511.07800292969</ele>
        <time>2019-02-17T10:05:16Z</time>
      </trkpt>
      <trkpt lat="43.41636" lon="5.68721">
        <ele>512.03942871094</ele>
        <time>2019-02-17T10:05:28Z</time>
      </trkpt>
      <trkpt lat="43.4163" lon="5.68715">
        <ele>512.52001953125</ele>
        <time>2019-02-17T10:05:33Z</time>
      </trkpt>
      <trkpt lat="43.4161" lon="5.68706">
        <ele>513.00073242188</ele>
        <time>2019-02-17T10:05:53Z</time>
      </trkpt>
      <trkpt lat="43.41609" lon="5.68713">
        <ele>513.96203613281</ele>
        <time>2019-02-17T10:06:00Z</time>
      </trkpt>
      <trkpt lat="43.41606" lon="5.68726">
        <ele>515.88464355469</ele>
        <time>2019-02-17T10:06:15Z</time>
      </trkpt>
      <trkpt lat="43.41608" lon="5.6873">
        <ele>516.365234375</ele>
        <time>2019-02-17T10:06:18Z</time>
      </trkpt>
      <trkpt lat="43.41615" lon="5.68745">
        <ele>516.84594726562</ele>
        <time>2019-02-17T10:06:32Z</time>
      </trkpt>
      <trkpt lat="43.41618" lon="5.68747">
        <ele>517.32666015625</ele>
        <time>2019-02-17T10:06:36Z</time>
      </trkpt>
      <trkpt lat="43.41632" lon="5.68773">
        <ele>518.7685546875</ele>
        <time>2019-02-17T10:06:56Z</time>
      </trkpt>
      <trkpt lat="43.41644" lon="5.68786">
        <ele>519.72985839844</ele>
        <time>2019-02-17T10:07:11Z</time>
      </trkpt>
      <trkpt lat="43.41653" lon="5.68807">
        <ele>520.69128417969</ele>
        <time>2019-02-17T10:07:31Z</time>
      </trkpt>
      <trkpt lat="43.41659" lon="5.68817">
        <ele>521.17199707031</ele>
        <time>2019-02-17T10:07:49Z</time>
      </trkpt>
      <trkpt lat="43.41675" lon="5.68822">
        <ele>522.13317871094</ele>
        <time>2019-02-17T10:08:04Z</time>
      </trkpt>
      <trkpt lat="43.41686" lon="5.68817">
        <ele>522.13317871094</ele>
        <time>2019-02-17T10:08:15Z</time>
      </trkpt>
      <trkpt lat="43.41707" lon="5.68822">
        <ele>523.09460449219</ele>
        <time>2019-02-17T10:08:35Z</time>
      </trkpt>
      <trkpt lat="43.41717" lon="5.68833">
        <ele>523.5751953125</ele>
        <time>2019-02-17T10:08:46Z</time>
      </trkpt>
      <trkpt lat="43.41745" lon="5.68839">
        <ele>525.01721191406</ele>
        <time>2019-02-17T10:09:09Z</time>
      </trkpt>
      <trkpt lat="43.41768" lon="5.68842">
        <ele>525.97839355469</ele>
        <time>2019-02-17T10:09:28Z</time>
      </trkpt>
      <trkpt lat="43.41781" lon="5.68871">
        <ele>526.45910644531</ele>
        <time>2019-02-17T10:09:49Z</time>
      </trkpt>
      <trkpt lat="43.41782" lon="5.68886">
        <ele>525.97839355469</ele>
        <time>2019-02-17T10:09:58Z</time>
      </trkpt>
      <trkpt lat="43.41786" lon="5.68894">
        <ele>525.97839355469</ele>
        <time>2019-02-17T10:10:04Z</time>
      </trkpt>
      <trkpt lat="43.41795" lon="5.68915">
        <ele>524.05578613281</ele>
        <time>2019-02-17T10:10:19Z</time>
      </trkpt>
      <trkpt lat="43.41806" lon="5.68944">
        <ele>526.45910644531</ele>
        <time>2019-02-17T10:10:39Z</time>
      </trkpt>
      <trkpt lat="43.41811" lon="5.68966">
        <ele>525.01721191406</ele>
        <time>2019-02-17T10:10:54Z</time>
      </trkpt>
      <trkpt lat="43.41816" lon="5.68986">
        <ele>526.45910644531</ele>
        <time>2019-02-17T10:11:10Z</time>
      </trkpt>
      <trkpt lat="43.41815" lon="5.68988">
        <ele>526.45910644531</ele>
        <time>2019-02-17T10:11:11Z</time>
      </trkpt>
      <trkpt lat="43.41815" lon="5.68995">
        <ele>527.42041015625</ele>
        <time>2019-02-17T10:11:15Z</time>
      </trkpt>
      <trkpt lat="43.41823" lon="5.69013">
        <ele>527.90100097656</ele>
        <time>2019-02-17T10:11:24Z</time>
      </trkpt>
      <trkpt lat="43.41828" lon="5.69029">
        <ele>528.3818359375</ele>
        <time>2019-02-17T10:11:37Z</time>
      </trkpt>
      <trkpt lat="43.41831" lon="5.69037">
        <ele>528.86254882812</ele>
        <time>2019-02-17T10:11:42Z</time>
      </trkpt>
      <trkpt lat="43.41832" lon="5.69049">
        <ele>530.30444335938</ele>
        <time>2019-02-17T10:11:55Z</time>
      </trkpt>
      <trkpt lat="43.41831" lon="5.69068">
        <ele>531.74633789062</ele>
        <time>2019-02-17T10:12:07Z</time>
      </trkpt>
      <trkpt lat="43.41831" lon="5.69071">
        <ele>531.74633789062</ele>
        <time>2019-02-17T10:12:09Z</time>
      </trkpt>
      <trkpt lat="43.41834" lon="5.6908">
        <ele>532.70776367188</ele>
        <time>2019-02-17T10:12:14Z</time>
      </trkpt>
      <trkpt lat="43.41832" lon="5.69098">
        <ele>534.63037109375</ele>
        <time>2019-02-17T10:12:28Z</time>
      </trkpt>
      <trkpt lat="43.41831" lon="5.69106">
        <ele>534.63037109375</ele>
        <time>2019-02-17T10:12:33Z</time>
      </trkpt>
      <trkpt lat="43.41833" lon="5.69114">
        <ele>534.14965820312</ele>
        <time>2019-02-17T10:12:39Z</time>
      </trkpt>
      <trkpt lat="43.41833" lon="5.69125">
        <ele>534.63037109375</ele>
        <time>2019-02-17T10:12:46Z</time>
      </trkpt>
      <trkpt lat="43.41833" lon="5.69137">
        <ele>535.11096191406</ele>
        <time>2019-02-17T10:12:53Z</time>
      </trkpt>
      <trkpt lat="43.41832" lon="5.69146">
        <ele>536.07238769531</ele>
        <time>2019-02-17T10:12:58Z</time>
      </trkpt>
      <trkpt lat="43.41829" lon="5.69165">
        <ele>536.55310058594</ele>
        <time>2019-02-17T10:13:12Z</time>
      </trkpt>
      <trkpt lat="43.41828" lon="5.69166">
        <ele>536.55310058594</ele>
        <time>2019-02-17T10:13:13Z</time>
      </trkpt>
      <trkpt lat="43.41823" lon="5.69181">
        <ele>537.99499511719</ele>
        <time>2019-02-17T10:13:24Z</time>
      </trkpt>
      <trkpt lat="43.41821" lon="5.69183">
        <ele>537.99499511719</ele>
        <time>2019-02-17T10:13:26Z</time>
      </trkpt>
      <trkpt lat="43.41813" lon="5.692">
        <ele>541.84020996094</ele>
        <time>2019-02-17T10:13:40Z</time>
      </trkpt>
      <trkpt lat="43.4181" lon="5.69206">
        <ele>540.87890625</ele>
        <time>2019-02-17T10:13:45Z</time>
      </trkpt>
      <trkpt lat="43.41804" lon="5.69219">
        <ele>541.35949707031</ele>
        <time>2019-02-17T10:13:57Z</time>
      </trkpt>
      <trkpt lat="43.418" lon="5.6924">
        <ele>541.84020996094</ele>
        <time>2019-02-17T10:14:11Z</time>
      </trkpt>
      <trkpt lat="43.41797" lon="5.69254">
        <ele>542.32092285156</ele>
        <time>2019-02-17T10:14:18Z</time>
      </trkpt>
      <trkpt lat="43.41799" lon="5.69258">
        <ele>541.84020996094</ele>
        <time>2019-02-17T10:14:21Z</time>
      </trkpt>
      <trkpt lat="43.418" lon="5.69277">
        <ele>544.72424316406</ele>
        <time>2019-02-17T10:14:34Z</time>
      </trkpt>
      <trkpt lat="43.41799" lon="5.69282">
        <ele>544.72424316406</ele>
        <time>2019-02-17T10:14:38Z</time>
      </trkpt>
      <trkpt lat="43.41799" lon="5.69296">
        <ele>545.20483398438</ele>
        <time>2019-02-17T10:14:47Z</time>
      </trkpt>
      <trkpt lat="43.418" lon="5.69313">
        <ele>545.20483398438</ele>
        <time>2019-02-17T10:15:01Z</time>
      </trkpt>
      <trkpt lat="43.41803" lon="5.69332">
        <ele>544.72424316406</ele>
        <time>2019-02-17T10:15:16Z</time>
      </trkpt>
      <trkpt lat="43.41801" lon="5.69358">
        <ele>546.64685058594</ele>
        <time>2019-02-17T10:15:31Z</time>
      </trkpt>
      <trkpt lat="43.41804" lon="5.69366">
        <ele>546.16625976562</ele>
        <time>2019-02-17T10:15:39Z</time>
      </trkpt>
      <trkpt lat="43.41807" lon="5.69381">
        <ele>547.12744140625</ele>
        <time>2019-02-17T10:15:51Z</time>
      </trkpt>
      <trkpt lat="43.4181" lon="5.69403">
        <ele>547.12744140625</ele>
        <time>2019-02-17T10:16:06Z</time>
      </trkpt>
      <trkpt lat="43.4181" lon="5.69418">
        <ele>548.0888671875</ele>
        <time>2019-02-17T10:16:19Z</time>
      </trkpt>
      <trkpt lat="43.41813" lon="5.69426">
        <ele>548.5693359375</ele>
        <time>2019-02-17T10:16:25Z</time>
      </trkpt>
      <trkpt lat="43.41815" lon="5.69432">
        <ele>548.5693359375</ele>
        <time>2019-02-17T10:16:34Z</time>
      </trkpt>
      <trkpt lat="43.41827" lon="5.69461">
        <ele>549.05004882812</ele>
        <time>2019-02-17T10:16:54Z</time>
      </trkpt>
      <trkpt lat="43.41827" lon="5.69463">
        <ele>548.5693359375</ele>
        <time>2019-02-17T10:16:55Z</time>
      </trkpt>
      <trkpt lat="43.41831" lon="5.69472">
        <ele>549.53076171875</ele>
        <time>2019-02-17T10:17:04Z</time>
      </trkpt>
      <trkpt lat="43.41838" lon="5.69476">
        <ele>550.4921875</ele>
        <time>2019-02-17T10:17:09Z</time>
      </trkpt>
      <trkpt lat="43.41846" lon="5.69485">
        <ele>550.4921875</ele>
        <time>2019-02-17T10:17:14Z</time>
      </trkpt>
      <trkpt lat="43.41857" lon="5.69507">
        <ele>550.97265625</ele>
        <time>2019-02-17T10:17:28Z</time>
      </trkpt>
      <trkpt lat="43.41871" lon="5.69516">
        <ele>552.89526367188</ele>
        <time>2019-02-17T10:17:42Z</time>
      </trkpt>
      <trkpt lat="43.41872" lon="5.69515">
        <ele>552.89526367188</ele>
        <time>2019-02-17T10:17:43Z</time>
      </trkpt>
      <trkpt lat="43.41879" lon="5.69519">
        <ele>554.81787109375</ele>
        <time>2019-02-17T10:17:53Z</time>
      </trkpt>
      <trkpt lat="43.41888" lon="5.69522">
        <ele>555.29858398438</ele>
        <time>2019-02-17T10:18:00Z</time>
      </trkpt>
      <trkpt lat="43.41896" lon="5.69523">
        <ele>555.29858398438</ele>
        <time>2019-02-17T10:18:05Z</time>
      </trkpt>
      <trkpt lat="43.41902" lon="5.69533">
        <ele>555.29858398438</ele>
        <time>2019-02-17T10:18:15Z</time>
      </trkpt>
      <trkpt lat="43.41905" lon="5.6955">
        <ele>554.81787109375</ele>
        <time>2019-02-17T10:18:27Z</time>
      </trkpt>
      <trkpt lat="43.41907" lon="5.69559">
        <ele>553.85668945312</ele>
        <time>2019-02-17T10:18:45Z</time>
      </trkpt>
      <trkpt lat="43.41905" lon="5.69559">
        <ele>554.81787109375</ele>
        <time>2019-02-17T10:19:41Z</time>
      </trkpt>
      <trkpt lat="43.41906" lon="5.69558">
        <ele>554.33740234375</ele>
        <time>2019-02-17T10:21:19Z</time>
      </trkpt>
      <trkpt lat="43.41906" lon="5.69558">
        <ele>554.81787109375</ele>
        <time>2019-02-17T10:21:58Z</time>
      </trkpt>
      <trkpt lat="43.41905" lon="5.69554">
        <ele>555.29858398438</ele>
        <time>2019-02-17T10:22:50Z</time>
      </trkpt>
      <trkpt lat="43.41904" lon="5.69556">
        <ele>554.81787109375</ele>
        <time>2019-02-17T10:23:19Z</time>
      </trkpt>
      <trkpt lat="43.41902" lon="5.69557">
        <ele>554.81787109375</ele>
        <time>2019-02-17T10:23:57Z</time>
      </trkpt>
      <trkpt lat="43.41903" lon="5.6956">
        <ele>555.29858398438</ele>
        <time>2019-02-17T10:24:33Z</time>
      </trkpt>
      <trkpt lat="43.41904" lon="5.69567">
        <ele>555.29858398438</ele>
        <time>2019-02-17T10:24:54Z</time>
      </trkpt>
      <trkpt lat="43.41907" lon="5.69569">
        <ele>555.29858398438</ele>
        <time>2019-02-17T10:25:14Z</time>
      </trkpt>
      <trkpt lat="43.4191" lon="5.69593">
        <ele>553.3759765625</ele>
        <time>2019-02-17T10:25:32Z</time>
      </trkpt>
      <trkpt lat="43.4191" lon="5.69613">
        <ele>553.3759765625</ele>
        <time>2019-02-17T10:25:47Z</time>
      </trkpt>
      <trkpt lat="43.41914" lon="5.69632">
        <ele>553.3759765625</ele>
        <time>2019-02-17T10:26:02Z</time>
      </trkpt>
      <trkpt lat="43.4192" lon="5.69649">
        <ele>553.85668945312</ele>
        <time>2019-02-17T10:26:15Z</time>
      </trkpt>
      <trkpt lat="43.41925" lon="5.69662">
        <ele>555.779296875</ele>
        <time>2019-02-17T10:26:27Z</time>
      </trkpt>
      <trkpt lat="43.41931" lon="5.69677">
        <ele>558.66333007812</ele>
        <time>2019-02-17T10:26:43Z</time>
      </trkpt>
      <trkpt lat="43.41935" lon="5.69693">
        <ele>560.10522460938</ele>
        <time>2019-02-17T10:26:57Z</time>
      </trkpt>
      <trkpt lat="43.41943" lon="5.69702">
        <ele>561.06665039062</ele>
        <time>2019-02-17T10:27:06Z</time>
      </trkpt>
      <trkpt lat="43.41958" lon="5.69714">
        <ele>562.9892578125</ele>
        <time>2019-02-17T10:27:20Z</time>
      </trkpt>
      <trkpt lat="43.41959" lon="5.69713">
        <ele>563.95043945312</ele>
        <time>2019-02-17T10:27:31Z</time>
      </trkpt>
      <trkpt lat="43.41962" lon="5.69716">
        <ele>563.46997070312</ele>
        <time>2019-02-17T10:27:34Z</time>
      </trkpt>
      <trkpt lat="43.41966" lon="5.6972">
        <ele>564.43115234375</ele>
        <time>2019-02-17T10:27:45Z</time>
      </trkpt>
      <trkpt lat="43.41967" lon="5.69725">
        <ele>564.91186523438</ele>
        <time>2019-02-17T10:27:49Z</time>
      </trkpt>
      <trkpt lat="43.41968" lon="5.69728">
        <ele>565.392578125</ele>
        <time>2019-02-17T10:27:51Z</time>
      </trkpt>
      <trkpt lat="43.41967" lon="5.69735">
        <ele>565.87329101562</ele>
        <time>2019-02-17T10:27:55Z</time>
      </trkpt>
      <trkpt lat="43.41961" lon="5.69747">
        <ele>566.35375976562</ele>
        <time>2019-02-17T10:28:05Z</time>
      </trkpt>
      <trkpt lat="43.41955" lon="5.69763">
        <ele>565.392578125</ele>
        <time>2019-02-17T10:28:22Z</time>
      </trkpt>
      <trkpt lat="43.41947" lon="5.6978">
        <ele>565.392578125</ele>
        <time>2019-02-17T10:28:36Z</time>
      </trkpt>
      <trkpt lat="43.41945" lon="5.69786">
        <ele>565.87329101562</ele>
        <time>2019-02-17T10:28:40Z</time>
      </trkpt>
      <trkpt lat="43.41942" lon="5.6979">
        <ele>565.87329101562</ele>
        <time>2019-02-17T10:28:43Z</time>
      </trkpt>
      <trkpt lat="43.41939" lon="5.69795">
        <ele>565.392578125</ele>
        <time>2019-02-17T10:28:57Z</time>
      </trkpt>
      <trkpt lat="43.41937" lon="5.69812">
        <ele>563.95043945312</ele>
        <time>2019-02-17T10:29:08Z</time>
      </trkpt>
      <trkpt lat="43.41938" lon="5.6982">
        <ele>562.9892578125</ele>
        <time>2019-02-17T10:29:16Z</time>
      </trkpt>
      <trkpt lat="43.4194" lon="5.69827">
        <ele>562.9892578125</ele>
        <time>2019-02-17T10:29:20Z</time>
      </trkpt>
      <trkpt lat="43.41939" lon="5.69847">
        <ele>561.54736328125</ele>
        <time>2019-02-17T10:29:34Z</time>
      </trkpt>
      <trkpt lat="43.4194" lon="5.69863">
        <ele>561.54736328125</ele>
        <time>2019-02-17T10:29:48Z</time>
      </trkpt>
      <trkpt lat="43.41937" lon="5.69887">
        <ele>561.06665039062</ele>
        <time>2019-02-17T10:30:04Z</time>
      </trkpt>
      <trkpt lat="43.41934" lon="5.69899">
        <ele>559.62475585938</ele>
        <time>2019-02-17T10:30:14Z</time>
      </trkpt>
      <trkpt lat="43.41934" lon="5.69919">
        <ele>559.14404296875</ele>
        <time>2019-02-17T10:30:30Z</time>
      </trkpt>
      <trkpt lat="43.41933" lon="5.69925">
        <ele>559.14404296875</ele>
        <time>2019-02-17T10:30:36Z</time>
      </trkpt>
      <trkpt lat="43.41931" lon="5.69937">
        <ele>558.66333007812</ele>
        <time>2019-02-17T10:30:50Z</time>
      </trkpt>
      <trkpt lat="43.41927" lon="5.69941">
        <ele>559.14404296875</ele>
        <time>2019-02-17T10:30:58Z</time>
      </trkpt>
      <trkpt lat="43.41916" lon="5.69942">
        <ele>561.54736328125</ele>
        <time>2019-02-17T10:31:11Z</time>
      </trkpt>
      <trkpt lat="43.41911" lon="5.69952">
        <ele>563.46997070312</ele>
        <time>2019-02-17T10:31:27Z</time>
      </trkpt>
      <trkpt lat="43.41904" lon="5.69968">
        <ele>564.91186523438</ele>
        <time>2019-02-17T10:31:39Z</time>
      </trkpt>
      <trkpt lat="43.41895" lon="5.70001">
        <ele>564.91186523438</ele>
        <time>2019-02-17T10:31:56Z</time>
      </trkpt>
      <trkpt lat="43.41891" lon="5.70027">
        <ele>565.392578125</ele>
        <time>2019-02-17T10:32:06Z</time>
      </trkpt>
      <trkpt lat="43.41897" lon="5.70061">
        <ele>562.02807617188</ele>
        <time>2019-02-17T10:32:21Z</time>
      </trkpt>
      <trkpt lat="43.41903" lon="5.70068">
        <ele>561.54736328125</ele>
        <time>2019-02-17T10:32:32Z</time>
      </trkpt>
      <trkpt lat="43.41907" lon="5.70074">
        <ele>560.5859375</ele>
        <time>2019-02-17T10:32:39Z</time>
      </trkpt>
      <trkpt lat="43.41913" lon="5.70078">
        <ele>559.14404296875</ele>
        <time>2019-02-17T10:32:45Z</time>
      </trkpt>
      <trkpt lat="43.41916" lon="5.70089">
        <ele>557.7021484375</ele>
        <time>2019-02-17T10:32:55Z</time>
      </trkpt>
      <trkpt lat="43.41909" lon="5.70096">
        <ele>571.203125</ele>
      </trkpt>
      <trkpt lat="43.41907" lon="5.701">
        <ele>572.18359375</ele>
      </trkpt>
      <trkpt lat="43.41905" lon="5.70107">
        <ele>573</ele>
      </trkpt>
      <trkpt lat="43.41902" lon="5.70112">
        <ele>574.0625</ele>
      </trkpt>
      <trkpt lat="43.419" lon="5.70117">
        <ele>574.83203125</ele>
      </trkpt>
      <trkpt lat="43.41897" lon="5.70122">
        <ele>576.18359375</ele>
      </trkpt>
      <trkpt lat="43.41894" lon="5.70129">
        <ele>577.2109375</ele>
      </trkpt>
      <trkpt lat="43.41893" lon="5.70136">
        <ele>577.61328125</ele>
      </trkpt>
      <trkpt lat="43.41892" lon="5.70144">
        <ele>577.9921875</ele>
      </trkpt>
      <trkpt lat="43.41891" lon="5.70152">
        <ele>578.61328125</ele>
      </trkpt>
      <trkpt lat="43.41889" lon="5.70161">
        <ele>579.44140625</ele>
      </trkpt>
      <trkpt lat="43.41887" lon="5.70169">
        <ele>580.2421875</ele>
      </trkpt>
      <trkpt lat="43.41886" lon="5.70177">
        <ele>580.78125</ele>
      </trkpt>
      <trkpt lat="43.41885" lon="5.70184">
        <ele>581.453125</ele>
      </trkpt>
      <trkpt lat="43.41883" lon="5.70192">
        <ele>582.52734375</ele>
      </trkpt>
      <trkpt lat="43.41882" lon="5.702">
        <ele>583.6796875</ele>
      </trkpt>
      <trkpt lat="43.4188" lon="5.70207">
        <ele>584.79296875</ele>
      </trkpt>
      <trkpt lat="43.41878" lon="5.70212">
        <ele>585.81640625</ele>
      </trkpt>
      <trkpt lat="43.41876" lon="5.70218">
        <ele>586.9296875</ele>
      </trkpt>
      <trkpt lat="43.41876" lon="5.70227">
        <ele>587.5859375</ele>
      </trkpt>
      <trkpt lat="43.41874" lon="5.70236">
        <ele>588.890625</ele>
      </trkpt>
      <trkpt lat="43.41874" lon="5.70246">
        <ele>589.97265625</ele>
      </trkpt>
      <trkpt lat="43.41872" lon="5.70255">
        <ele>591.42578125</ele>
      </trkpt>
      <trkpt lat="43.4187" lon="5.70262">
        <ele>592.80078125</ele>
      </trkpt>
      <trkpt lat="43.4187" lon="5.7027">
        <ele>593.7265625</ele>
      </trkpt>
      <trkpt lat="43.4187" lon="5.70278">
        <ele>594.6953125</ele>
      </trkpt>
      <trkpt lat="43.41869" lon="5.70284">
        <ele>595.87890625</ele>
      </trkpt>
      <trkpt lat="43.41869" lon="5.70292">
        <ele>596.87109375</ele>
      </trkpt>
      <trkpt lat="43.41869" lon="5.70301">
        <ele>598.18359375</ele>
      </trkpt>
      <trkpt lat="43.41869" lon="5.70309">
        <ele>599.3046875</ele>
      </trkpt>
      <trkpt lat="43.41869" lon="5.70318">
        <ele>600.6171875</ele>
      </trkpt>
      <trkpt lat="43.41868" lon="5.70325">
        <ele>601.8359375</ele>
      </trkpt>
      <trkpt lat="43.41865" lon="5.7033">
        <ele>603.6171875</ele>
      </trkpt>
      <trkpt lat="43.41862" lon="5.70334">
        <ele>605.58203125</ele>
      </trkpt>
      <trkpt lat="43.41859" lon="5.70338">
        <ele>607.13671875</ele>
      </trkpt>
      <trkpt lat="43.41856" lon="5.70343">
        <ele>609.171875</ele>
      </trkpt>
      <trkpt lat="43.41852" lon="5.70347">
        <ele>611.2109375</ele>
      </trkpt>
      <trkpt lat="43.41848" lon="5.70351">
        <ele>613.52734375</ele>
      </trkpt>
      <trkpt lat="43.41847" lon="5.70359">
        <ele>615.19921875</ele>
      </trkpt>
      <trkpt lat="43.41845" lon="5.70365">
        <ele>617.38671875</ele>
      </trkpt>
      <trkpt lat="43.41842" lon="5.70373">
        <ele>619.671875</ele>
      </trkpt>
      <trkpt lat="43.41841" lon="5.70379">
        <ele>620.8125</ele>
      </trkpt>
      <trkpt lat="43.41841" lon="5.70388">
        <ele>621.8046875</ele>
      </trkpt>
      <trkpt lat="43.41842" lon="5.70395">
        <ele>622.203125</ele>
      </trkpt>
      <trkpt lat="43.41845" lon="5.704">
        <ele>621.89453125</ele>
      </trkpt>
      <trkpt lat="43.41847" lon="5.70407">
        <ele>621.91015625</ele>
      </trkpt>
      <trkpt lat="43.41848" lon="5.70414">
        <ele>622.01171875</ele>
      </trkpt>
      <trkpt lat="43.41848" lon="5.70422">
        <ele>622.6640625</ele>
      </trkpt>
      <trkpt lat="43.41847" lon="5.70431">
        <ele>623.55078125</ele>
      </trkpt>
      <trkpt lat="43.41847" lon="5.70438">
        <ele>623.84375</ele>
      </trkpt>
      <trkpt lat="43.41843" lon="5.70443">
        <ele>624.578125</ele>
      </trkpt>
      <trkpt lat="43.41841" lon="5.70449">
        <ele>624.91796875</ele>
      </trkpt>
      <trkpt lat="43.41846" lon="5.70478">
        <ele>617.3037109375</ele>
        <time>2019-02-17T12:22:52Z</time>
      </trkpt>
      <trkpt lat="43.41838" lon="5.70473">
        <ele>619.22631835938</ele>
        <time>2019-02-17T12:23:02Z</time>
      </trkpt>
      <trkpt lat="43.4183" lon="5.70477">
        <ele>620.66845703125</ele>
        <time>2019-02-17T12:23:17Z</time>
      </trkpt>
      <trkpt lat="43.41831" lon="5.70476">
        <ele>620.66845703125</ele>
        <time>2019-02-17T12:23:48Z</time>
      </trkpt>
      <trkpt lat="43.4183" lon="5.70481">
        <ele>621.62963867188</ele>
        <time>2019-02-17T12:23:53Z</time>
      </trkpt>
      <trkpt lat="43.41818" lon="5.70493">
        <ele>623.07177734375</ele>
        <time>2019-02-17T12:24:07Z</time>
      </trkpt>
      <trkpt lat="43.41813" lon="5.70498">
        <ele>623.55249023438</ele>
        <time>2019-02-17T12:24:12Z</time>
      </trkpt>
      <trkpt lat="43.41811" lon="5.70499">
        <ele>623.55249023438</ele>
        <time>2019-02-17T12:24:17Z</time>
      </trkpt>
      <trkpt lat="43.41809" lon="5.70503">
        <ele>623.55249023438</ele>
        <time>2019-02-17T12:24:20Z</time>
      </trkpt>
      <trkpt lat="43.41795" lon="5.70507">
        <ele>623.07177734375</ele>
        <time>2019-02-17T12:24:36Z</time>
      </trkpt>
      <trkpt lat="43.41796" lon="5.70506">
        <ele>623.07177734375</ele>
        <time>2019-02-17T12:25:00Z</time>
      </trkpt>
      <trkpt lat="43.41784" lon="5.70506">
        <ele>623.07177734375</ele>
        <time>2019-02-17T12:25:39Z</time>
      </trkpt>
      <trkpt lat="43.4178" lon="5.70507">
        <ele>623.55249023438</ele>
        <time>2019-02-17T12:25:45Z</time>
      </trkpt>
      <trkpt lat="43.41769" lon="5.70505">
        <ele>624.513671875</ele>
        <time>2019-02-17T12:25:56Z</time>
      </trkpt>
      <trkpt lat="43.41759" lon="5.70494">
        <ele>627.39770507812</ele>
        <time>2019-02-17T12:26:11Z</time>
      </trkpt>
      <trkpt lat="43.41752" lon="5.70487">
        <ele>629.80078125</ele>
        <time>2019-02-17T12:26:27Z</time>
      </trkpt>
      <trkpt lat="43.41745" lon="5.70476">
        <ele>631.72338867188</ele>
        <time>2019-02-17T12:26:43Z</time>
      </trkpt>
      <trkpt lat="43.41739" lon="5.70468">
        <ele>633.64599609375</ele>
        <time>2019-02-17T12:27:00Z</time>
      </trkpt>
      <trkpt lat="43.41738" lon="5.70456">
        <ele>635.56860351562</ele>
        <time>2019-02-17T12:27:29Z</time>
      </trkpt>
      <trkpt lat="43.41738" lon="5.70452">
        <ele>636.04956054688</ele>
        <time>2019-02-17T12:27:32Z</time>
      </trkpt>
      <trkpt lat="43.41743" lon="5.70448">
        <ele>637.0107421875</ele>
        <time>2019-02-17T12:27:46Z</time>
      </trkpt>
      <trkpt lat="43.41739" lon="5.70433">
        <ele>637.49145507812</ele>
        <time>2019-02-17T12:28:01Z</time>
      </trkpt>
      <trkpt lat="43.4174" lon="5.70421">
        <ele>637.97216796875</ele>
        <time>2019-02-17T12:28:16Z</time>
      </trkpt>
      <trkpt lat="43.4174" lon="5.70412">
        <ele>637.49145507812</ele>
        <time>2019-02-17T12:28:28Z</time>
      </trkpt>
      <trkpt lat="43.41736" lon="5.70404">
        <ele>636.5302734375</ele>
        <time>2019-02-17T12:28:43Z</time>
      </trkpt>
      <trkpt lat="43.41729" lon="5.70404">
        <ele>635.56860351562</ele>
        <time>2019-02-17T12:29:01Z</time>
      </trkpt>
      <trkpt lat="43.41728" lon="5.70415">
        <ele>635.08813476562</ele>
        <time>2019-02-17T12:29:30Z</time>
      </trkpt>
      <trkpt lat="43.41726" lon="5.7042">
        <ele>635.08813476562</ele>
        <time>2019-02-17T12:29:59Z</time>
      </trkpt>
      <trkpt lat="43.41737" lon="5.7041">
        <ele>635.56860351562</ele>
        <time>2019-02-17T12:30:33Z</time>
      </trkpt>
      <trkpt lat="43.41739" lon="5.7041">
        <ele>635.56860351562</ele>
        <time>2019-02-17T12:30:48Z</time>
      </trkpt>
      <trkpt lat="43.4173" lon="5.70407">
        <ele>635.56860351562</ele>
        <time>2019-02-17T12:31:03Z</time>
      </trkpt>
      <trkpt lat="43.4173" lon="5.70407">
        <ele>635.56860351562</ele>
        <time>2019-02-17T12:31:23Z</time>
      </trkpt>
      <trkpt lat="43.41724" lon="5.70406">
        <ele>635.56860351562</ele>
        <time>2019-02-17T12:31:41Z</time>
      </trkpt>
      <trkpt lat="43.41726" lon="5.70401">
        <ele>636.04956054688</ele>
        <time>2019-02-17T12:32:07Z</time>
      </trkpt>
      <trkpt lat="43.41733" lon="5.70393">
        <ele>636.04956054688</ele>
        <time>2019-02-17T12:34:07Z</time>
      </trkpt>
      <trkpt lat="43.41736" lon="5.70382">
        <ele>635.56860351562</ele>
        <time>2019-02-17T12:34:18Z</time>
      </trkpt>
      <trkpt lat="43.41734" lon="5.70376">
        <ele>635.56860351562</ele>
        <time>2019-02-17T12:34:23Z</time>
      </trkpt>
      <trkpt lat="43.41732" lon="5.70365">
        <ele>634.12670898438</ele>
        <time>2019-02-17T12:34:36Z</time>
      </trkpt>
      <trkpt lat="43.41734" lon="5.70365">
        <ele>634.607421875</ele>
        <time>2019-02-17T12:35:16Z</time>
      </trkpt>
      <trkpt lat="43.41736" lon="5.70364">
        <ele>634.607421875</ele>
        <time>2019-02-17T12:35:29Z</time>
      </trkpt>
      <trkpt lat="43.41732" lon="5.70365">
        <ele>635.08813476562</ele>
        <time>2019-02-17T12:35:46Z</time>
      </trkpt>
      <trkpt lat="43.41731" lon="5.70367">
        <ele>634.607421875</ele>
        <time>2019-02-17T12:35:57Z</time>
      </trkpt>
      <trkpt lat="43.41732" lon="5.70368">
        <ele>635.08813476562</ele>
        <time>2019-02-17T12:36:16Z</time>
      </trkpt>
      <trkpt lat="43.41741" lon="5.70363">
        <ele>634.607421875</ele>
        <time>2019-02-17T12:36:53Z</time>
      </trkpt>
      <trkpt lat="43.41743" lon="5.70356">
        <ele>632.68481445312</ele>
        <time>2019-02-17T12:37:12Z</time>
      </trkpt>
      <trkpt lat="43.41745" lon="5.70342">
        <ele>630.76220703125</ele>
        <time>2019-02-17T12:37:28Z</time>
      </trkpt>
      <trkpt lat="43.4175" lon="5.70335">
        <ele>629.32006835938</ele>
        <time>2019-02-17T12:37:48Z</time>
      </trkpt>
      <trkpt lat="43.4176" lon="5.70324">
        <ele>626.9169921875</ele>
        <time>2019-02-17T12:38:02Z</time>
      </trkpt>
      <trkpt lat="43.41767" lon="5.70313">
        <ele>624.513671875</ele>
        <time>2019-02-17T12:38:13Z</time>
      </trkpt>
      <trkpt lat="43.41779" lon="5.70298">
        <ele>620.66845703125</ele>
        <time>2019-02-17T12:38:27Z</time>
      </trkpt>
      <trkpt lat="43.41785" lon="5.70284">
        <ele>617.7841796875</ele>
        <time>2019-02-17T12:38:41Z</time>
      </trkpt>
      <trkpt lat="43.4179" lon="5.70273">
        <ele>615.38110351562</ele>
        <time>2019-02-17T12:38:54Z</time>
      </trkpt>
      <trkpt lat="43.41791" lon="5.70271">
        <ele>613.93896484375</ele>
        <time>2019-02-17T12:38:56Z</time>
      </trkpt>
      <trkpt lat="43.41792" lon="5.70264">
        <ele>613.45849609375</ele>
        <time>2019-02-17T12:39:02Z</time>
      </trkpt>
      <trkpt lat="43.41801" lon="5.70249">
        <ele>611.05517578125</ele>
        <time>2019-02-17T12:39:17Z</time>
      </trkpt>
      <trkpt lat="43.41806" lon="5.70242">
        <ele>607.69067382812</ele>
        <time>2019-02-17T12:39:28Z</time>
      </trkpt>
      <trkpt lat="43.41815" lon="5.70226">
        <ele>605.76806640625</ele>
        <time>2019-02-17T12:39:43Z</time>
      </trkpt>
      <trkpt lat="43.4182" lon="5.70209">
        <ele>602.8837890625</ele>
        <time>2019-02-17T12:39:59Z</time>
      </trkpt>
      <trkpt lat="43.4182" lon="5.70196">
        <ele>600.48071289062</ele>
        <time>2019-02-17T12:40:13Z</time>
      </trkpt>
      <trkpt lat="43.4182" lon="5.70195">
        <ele>600</ele>
        <time>2019-02-17T12:40:14Z</time>
      </trkpt>
      <trkpt lat="43.41818" lon="5.70185">
        <ele>598.55786132812</ele>
        <time>2019-02-17T12:40:31Z</time>
      </trkpt>
      <trkpt lat="43.41818" lon="5.70184">
        <ele>598.55786132812</ele>
        <time>2019-02-17T12:40:32Z</time>
      </trkpt>
      <trkpt lat="43.41818" lon="5.70181">
        <ele>598.55786132812</ele>
        <time>2019-02-17T12:40:34Z</time>
      </trkpt>
      <trkpt lat="43.41818" lon="5.70173">
        <ele>597.5966796875</ele>
        <time>2019-02-17T12:40:39Z</time>
      </trkpt>
      <trkpt lat="43.41821" lon="5.70167">
        <ele>598.07739257812</ele>
        <time>2019-02-17T12:40:43Z</time>
      </trkpt>
      <trkpt lat="43.41823" lon="5.7016">
        <ele>598.55786132812</ele>
        <time>2019-02-17T12:40:49Z</time>
      </trkpt>
      <trkpt lat="43.41824" lon="5.70157">
        <ele>598.55786132812</ele>
        <time>2019-02-17T12:40:51Z</time>
      </trkpt>
      <trkpt lat="43.41826" lon="5.70152">
        <ele>599.51928710938</ele>
        <time>2019-02-17T12:40:56Z</time>
      </trkpt>
      <trkpt lat="43.41834" lon="5.70162">
        <ele>602.40307617188</ele>
        <time>2019-02-17T12:41:08Z</time>
      </trkpt>
      <trkpt lat="43.41834" lon="5.70152">
        <ele>601.92260742188</ele>
        <time>2019-02-17T12:41:24Z</time>
      </trkpt>
      <trkpt lat="43.41836" lon="5.70149">
        <ele>602.40307617188</ele>
        <time>2019-02-17T12:41:28Z</time>
      </trkpt>
      <trkpt lat="43.41837" lon="5.70136">
        <ele>604.326171875</ele>
        <time>2019-02-17T12:41:38Z</time>
      </trkpt>
      <trkpt lat="43.41837" lon="5.7013">
        <ele>604.806640625</ele>
        <time>2019-02-17T12:41:43Z</time>
      </trkpt>
      <trkpt lat="43.41838" lon="5.70125">
        <ele>605.76806640625</ele>
        <time>2019-02-17T12:41:46Z</time>
      </trkpt>
      <trkpt lat="43.41832" lon="5.70115">
        <ele>602.40307617188</ele>
        <time>2019-02-17T12:42:00Z</time>
      </trkpt>
      <trkpt lat="43.41833" lon="5.70106">
        <ele>600</ele>
        <time>2019-02-17T12:42:12Z</time>
      </trkpt>
      <trkpt lat="43.41837" lon="5.70093">
        <ele>596.63549804688</ele>
        <time>2019-02-17T12:42:24Z</time>
      </trkpt>
      <trkpt lat="43.41838" lon="5.70086">
        <ele>595.193359375</ele>
        <time>2019-02-17T12:42:30Z</time>
      </trkpt>
      <trkpt lat="43.41844" lon="5.70068">
        <ele>592.79028320312</ele>
        <time>2019-02-17T12:42:44Z</time>
      </trkpt>
      <trkpt lat="43.41844" lon="5.70044">
        <ele>590.38696289062</ele>
        <time>2019-02-17T12:42:58Z</time>
      </trkpt>
      <trkpt lat="43.41846" lon="5.70031">
        <ele>589.42553710938</ele>
        <time>2019-02-17T12:43:06Z</time>
      </trkpt>
      <trkpt lat="43.41848" lon="5.70027">
        <ele>589.42553710938</ele>
        <time>2019-02-17T12:43:09Z</time>
      </trkpt>
      <trkpt lat="43.41848" lon="5.70021">
        <ele>588.46435546875</ele>
        <time>2019-02-17T12:43:13Z</time>
      </trkpt>
      <trkpt lat="43.41849" lon="5.70018">
        <ele>587.9833984375</ele>
        <time>2019-02-17T12:43:15Z</time>
      </trkpt>
      <trkpt lat="43.41851" lon="5.70008">
        <ele>587.9833984375</ele>
        <time>2019-02-17T12:43:25Z</time>
      </trkpt>
      <trkpt lat="43.41851" lon="5.69997">
        <ele>588.94506835938</ele>
        <time>2019-02-17T12:43:33Z</time>
      </trkpt>
      <trkpt lat="43.41851" lon="5.69994">
        <ele>588.94506835938</ele>
        <time>2019-02-17T12:43:35Z</time>
      </trkpt>
      <trkpt lat="43.41849" lon="5.69982">
        <ele>587.9833984375</ele>
        <time>2019-02-17T12:43:44Z</time>
      </trkpt>
      <trkpt lat="43.41854" lon="5.69975">
        <ele>587.02197265625</ele>
        <time>2019-02-17T12:43:51Z</time>
      </trkpt>
      <trkpt lat="43.41851" lon="5.69958">
        <ele>585.099609375</ele>
        <time>2019-02-17T12:44:05Z</time>
      </trkpt>
      <trkpt lat="43.41852" lon="5.69957">
        <ele>585.099609375</ele>
        <time>2019-02-17T12:44:06Z</time>
      </trkpt>
      <trkpt lat="43.41856" lon="5.69949">
        <ele>584.61889648438</ele>
        <time>2019-02-17T12:44:21Z</time>
      </trkpt>
      <trkpt lat="43.41858" lon="5.69943">
        <ele>586.06079101562</ele>
        <time>2019-02-17T12:45:22Z</time>
      </trkpt>
      <trkpt lat="43.41856" lon="5.69922">
        <ele>585.580078125</ele>
        <time>2019-02-17T12:45:36Z</time>
      </trkpt>
      <trkpt lat="43.41852" lon="5.69915">
        <ele>587.02197265625</ele>
        <time>2019-02-17T12:45:49Z</time>
      </trkpt>
      <trkpt lat="43.41852" lon="5.69913">
        <ele>587.50268554688</ele>
        <time>2019-02-17T12:45:50Z</time>
      </trkpt>
      <trkpt lat="43.41851" lon="5.69899">
        <ele>589.42553710938</ele>
        <time>2019-02-17T12:45:59Z</time>
      </trkpt>
      <trkpt lat="43.41851" lon="5.69888">
        <ele>591.34814453125</ele>
        <time>2019-02-17T12:46:10Z</time>
      </trkpt>
      <trkpt lat="43.41852" lon="5.69873">
        <ele>593.27075195312</ele>
        <time>2019-02-17T12:46:24Z</time>
      </trkpt>
      <trkpt lat="43.41854" lon="5.69865">
        <ele>594.71264648438</ele>
        <time>2019-02-17T12:46:35Z</time>
      </trkpt>
      <trkpt lat="43.41855" lon="5.6985">
        <ele>596.63549804688</ele>
        <time>2019-02-17T12:46:47Z</time>
      </trkpt>
      <trkpt lat="43.41853" lon="5.69838">
        <ele>599.03857421875</ele>
        <time>2019-02-17T12:47:00Z</time>
      </trkpt>
      <trkpt lat="43.41854" lon="5.69825">
        <ele>600.96118164062</ele>
        <time>2019-02-17T12:47:14Z</time>
      </trkpt>
      <trkpt lat="43.41854" lon="5.69814">
        <ele>603.84521484375</ele>
        <time>2019-02-17T12:47:26Z</time>
      </trkpt>
      <trkpt lat="43.41857" lon="5.69803">
        <ele>606.24853515625</ele>
        <time>2019-02-17T12:47:39Z</time>
      </trkpt>
      <trkpt lat="43.41855" lon="5.6979">
        <ele>606.72924804688</ele>
        <time>2019-02-17T12:47:51Z</time>
      </trkpt>
      <trkpt lat="43.41854" lon="5.69781">
        <ele>605.76806640625</ele>
        <time>2019-02-17T12:48:03Z</time>
      </trkpt>
      <trkpt lat="43.41857" lon="5.69763">
        <ele>606.72924804688</ele>
        <time>2019-02-17T12:48:18Z</time>
      </trkpt>
      <trkpt lat="43.41855" lon="5.69747">
        <ele>607.69067382812</ele>
        <time>2019-02-17T12:48:32Z</time>
      </trkpt>
      <trkpt lat="43.41856" lon="5.69749">
        <ele>608.17138671875</ele>
        <time>2019-02-17T12:49:03Z</time>
      </trkpt>
      <trkpt lat="43.41853" lon="5.69744">
        <ele>607.69067382812</ele>
        <time>2019-02-17T12:49:55Z</time>
      </trkpt>
      <trkpt lat="43.41852" lon="5.69739">
        <ele>607.2099609375</ele>
        <time>2019-02-17T12:50:24Z</time>
      </trkpt>
      <trkpt lat="43.41849" lon="5.69723">
        <ele>605.28735351562</ele>
        <time>2019-02-17T12:50:37Z</time>
      </trkpt>
      <trkpt lat="43.41848" lon="5.69723">
        <ele>604.806640625</ele>
        <time>2019-02-17T12:50:52Z</time>
      </trkpt>
      <trkpt lat="43.41842" lon="5.69711">
        <ele>603.36450195312</ele>
        <time>2019-02-17T12:51:06Z</time>
      </trkpt>
      <trkpt lat="43.41839" lon="5.69704">
        <ele>602.40307617188</ele>
        <time>2019-02-17T12:51:20Z</time>
      </trkpt>
      <trkpt lat="43.41838" lon="5.69701">
        <ele>602.40307617188</ele>
        <time>2019-02-17T12:51:54Z</time>
      </trkpt>
      <trkpt lat="43.41837" lon="5.69695">
        <ele>602.40307617188</ele>
        <time>2019-02-17T12:52:22Z</time>
      </trkpt>
      <trkpt lat="43.41831" lon="5.69675">
        <ele>601.44189453125</ele>
        <time>2019-02-17T12:52:39Z</time>
      </trkpt>
      <trkpt lat="43.41829" lon="5.69674">
        <ele>601.44189453125</ele>
        <time>2019-02-17T12:52:42Z</time>
      </trkpt>
      <trkpt lat="43.41828" lon="5.69671">
        <ele>600.96118164062</ele>
        <time>2019-02-17T12:52:44Z</time>
      </trkpt>
      <trkpt lat="43.41821" lon="5.69641">
        <ele>600</ele>
        <time>2019-02-17T12:53:05Z</time>
      </trkpt>
      <trkpt lat="43.41822" lon="5.69639">
        <ele>600</ele>
        <time>2019-02-17T12:53:06Z</time>
      </trkpt>
      <trkpt lat="43.41819" lon="5.69632">
        <ele>599.51928710938</ele>
        <time>2019-02-17T12:53:12Z</time>
      </trkpt>
      <trkpt lat="43.41814" lon="5.69625">
        <ele>598.55786132812</ele>
        <time>2019-02-17T12:53:25Z</time>
      </trkpt>
      <trkpt lat="43.41811" lon="5.69623">
        <ele>598.07739257812</ele>
        <time>2019-02-17T12:53:39Z</time>
      </trkpt>
      <trkpt lat="43.41811" lon="5.69623">
        <ele>598.07739257812</ele>
        <time>2019-02-17T12:54:28Z</time>
      </trkpt>
      <trkpt lat="43.41807" lon="5.69624">
        <ele>597.11596679688</ele>
        <time>2019-02-17T12:54:41Z</time>
      </trkpt>
      <trkpt lat="43.41806" lon="5.69624">
        <ele>596.15478515625</ele>
        <time>2019-02-17T12:54:43Z</time>
      </trkpt>
      <trkpt lat="43.41801" lon="5.69623">
        <ele>595.193359375</ele>
        <time>2019-02-17T12:54:49Z</time>
      </trkpt>
      <trkpt lat="43.41796" lon="5.69615">
        <ele>593.27075195312</ele>
        <time>2019-02-17T12:54:58Z</time>
      </trkpt>
      <trkpt lat="43.4179" lon="5.69602">
        <ele>593.27075195312</ele>
        <time>2019-02-17T12:55:11Z</time>
      </trkpt>
      <trkpt lat="43.41788" lon="5.69597">
        <ele>592.3095703125</ele>
        <time>2019-02-17T12:55:24Z</time>
      </trkpt>
      <trkpt lat="43.41788" lon="5.69595">
        <ele>589.90625</ele>
        <time>2019-02-17T12:55:39Z</time>
      </trkpt>
      <trkpt lat="43.41785" lon="5.69592">
        <ele>586.54150390625</ele>
        <time>2019-02-17T12:55:57Z</time>
      </trkpt>
      <trkpt lat="43.41781" lon="5.69582">
        <ele>584.61889648438</ele>
        <time>2019-02-17T12:56:11Z</time>
      </trkpt>
      <trkpt lat="43.41776" lon="5.69582">
        <ele>584.61889648438</ele>
        <time>2019-02-17T12:56:25Z</time>
      </trkpt>
      <trkpt lat="43.41783" lon="5.69585">
        <ele>587.02197265625</ele>
        <time>2019-02-17T12:56:42Z</time>
      </trkpt>
      <trkpt lat="43.41783" lon="5.69588">
        <ele>587.9833984375</ele>
        <time>2019-02-17T12:57:24Z</time>
      </trkpt>
      <trkpt lat="43.41784" lon="5.69586">
        <ele>586.54150390625</ele>
        <time>2019-02-17T12:57:55Z</time>
      </trkpt>
      <trkpt lat="43.41779" lon="5.69584">
        <ele>585.580078125</ele>
        <time>2019-02-17T12:59:59Z</time>
      </trkpt>
      <trkpt lat="43.41776" lon="5.69581">
        <ele>584.61889648438</ele>
        <time>2019-02-17T13:00:04Z</time>
      </trkpt>
      <trkpt lat="43.41772" lon="5.69565">
        <ele>581.25439453125</ele>
        <time>2019-02-17T13:00:20Z</time>
      </trkpt>
      <trkpt lat="43.41771" lon="5.69559">
        <ele>580.29296875</ele>
        <time>2019-02-17T13:00:25Z</time>
      </trkpt>
      <trkpt lat="43.41764" lon="5.69539">
        <ele>580.77368164062</ele>
        <time>2019-02-17T13:00:37Z</time>
      </trkpt>
      <trkpt lat="43.41755" lon="5.69513">
        <ele>584.13818359375</ele>
        <time>2019-02-17T13:00:55Z</time>
      </trkpt>
      <trkpt lat="43.41748" lon="5.69496">
        <ele>586.06079101562</ele>
        <time>2019-02-17T13:01:10Z</time>
      </trkpt>
      <trkpt lat="43.41739" lon="5.69479">
        <ele>587.9833984375</ele>
        <time>2019-02-17T13:01:26Z</time>
      </trkpt>
      <trkpt lat="43.41737" lon="5.69475">
        <ele>587.9833984375</ele>
        <time>2019-02-17T13:01:28Z</time>
      </trkpt>
      <trkpt lat="43.41731" lon="5.69465">
        <ele>588.46435546875</ele>
        <time>2019-02-17T13:01:36Z</time>
      </trkpt>
      <trkpt lat="43.41731" lon="5.69458">
        <ele>588.94506835938</ele>
        <time>2019-02-17T13:01:40Z</time>
      </trkpt>
      <trkpt lat="43.41723" lon="5.69435">
        <ele>589.90625</ele>
        <time>2019-02-17T13:01:58Z</time>
      </trkpt>
      <trkpt lat="43.4172" lon="5.69425">
        <ele>590.86743164062</ele>
        <time>2019-02-17T13:02:11Z</time>
      </trkpt>
      <trkpt lat="43.41715" lon="5.6941">
        <ele>593.75146484375</ele>
        <time>2019-02-17T13:02:23Z</time>
      </trkpt>
      <trkpt lat="43.41713" lon="5.69403">
        <ele>594.23217773438</ele>
        <time>2019-02-17T13:02:28Z</time>
      </trkpt>
      <trkpt lat="43.41708" lon="5.69396">
        <ele>595.193359375</ele>
        <time>2019-02-17T13:02:41Z</time>
      </trkpt>
      <trkpt lat="43.41696" lon="5.69382">
        <ele>598.55786132812</ele>
        <time>2019-02-17T13:02:58Z</time>
      </trkpt>
      <trkpt lat="43.41687" lon="5.69371">
        <ele>600.48071289062</ele>
        <time>2019-02-17T13:03:10Z</time>
      </trkpt>
      <trkpt lat="43.41679" lon="5.69359">
        <ele>600.96118164062</ele>
        <time>2019-02-17T13:03:22Z</time>
      </trkpt>
      <trkpt lat="43.41679" lon="5.69359">
        <ele>600.96118164062</ele>
        <time>2019-02-17T13:03:38Z</time>
      </trkpt>
      <trkpt lat="43.41679" lon="5.69359">
        <ele>600.48071289062</ele>
        <time>2019-02-17T13:04:49Z</time>
      </trkpt>
      <trkpt lat="43.41679" lon="5.69361">
        <ele>600.48071289062</ele>
        <time>2019-02-17T13:05:22Z</time>
      </trkpt>
      <trkpt lat="43.41678" lon="5.69356">
        <ele>600.48071289062</ele>
        <time>2019-02-17T13:05:30Z</time>
      </trkpt>
      <trkpt lat="43.4167" lon="5.69348">
        <ele>601.44189453125</ele>
        <time>2019-02-17T13:05:37Z</time>
      </trkpt>
      <trkpt lat="43.41664" lon="5.69342">
        <ele>605.76806640625</ele>
        <time>2019-02-17T13:05:43Z</time>
      </trkpt>
      <trkpt lat="43.41656" lon="5.69334">
        <ele>609.61328125</ele>
        <time>2019-02-17T13:05:51Z</time>
      </trkpt>
      <trkpt lat="43.41656" lon="5.69332">
        <ele>609.61328125</ele>
        <time>2019-02-17T13:05:52Z</time>
      </trkpt>
      <trkpt lat="43.41646" lon="5.69325">
        <ele>612.4970703125</ele>
        <time>2019-02-17T13:06:00Z</time>
      </trkpt>
      <trkpt lat="43.4164" lon="5.69322">
        <ele>615.38110351562</ele>
        <time>2019-02-17T13:06:17Z</time>
      </trkpt>
      <trkpt lat="43.4164" lon="5.69323">
        <ele>615.38110351562</ele>
        <time>2019-02-17T13:06:43Z</time>
      </trkpt>
      <trkpt lat="43.41639" lon="5.6932">
        <ele>614.900390625</ele>
        <time>2019-02-17T13:06:55Z</time>
      </trkpt>
      <trkpt lat="43.41637" lon="5.69315">
        <ele>615.38110351562</ele>
        <time>2019-02-17T13:06:59Z</time>
      </trkpt>
      <trkpt lat="43.41632" lon="5.69292">
        <ele>616.82299804688</ele>
        <time>2019-02-17T13:07:14Z</time>
      </trkpt>
      <trkpt lat="43.41626" lon="5.69284">
        <ele>617.3037109375</ele>
        <time>2019-02-17T13:07:21Z</time>
      </trkpt>
      <trkpt lat="43.41615" lon="5.69261">
        <ele>618.74560546875</ele>
        <time>2019-02-17T13:07:40Z</time>
      </trkpt>
      <trkpt lat="43.41608" lon="5.6925">
        <ele>619.22631835938</ele>
        <time>2019-02-17T13:07:54Z</time>
      </trkpt>
      <trkpt lat="43.41598" lon="5.69233">
        <ele>618.74560546875</ele>
        <time>2019-02-17T13:08:07Z</time>
      </trkpt>
      <trkpt lat="43.41597" lon="5.69223">
        <ele>620.18774414062</ele>
        <time>2019-02-17T13:08:14Z</time>
      </trkpt>
      <trkpt lat="43.41589" lon="5.692">
        <ele>621.62963867188</ele>
        <time>2019-02-17T13:08:28Z</time>
      </trkpt>
      <trkpt lat="43.41578" lon="5.69181">
        <ele>620.66845703125</ele>
        <time>2019-02-17T13:08:42Z</time>
      </trkpt>
      <trkpt lat="43.41571" lon="5.69163">
        <ele>621.14916992188</ele>
        <time>2019-02-17T13:08:55Z</time>
      </trkpt>
      <trkpt lat="43.41567" lon="5.69158">
        <ele>621.62963867188</ele>
        <time>2019-02-17T13:09:00Z</time>
      </trkpt>
      <trkpt lat="43.41563" lon="5.69141">
        <ele>624.99438476562</ele>
        <time>2019-02-17T13:09:13Z</time>
      </trkpt>
      <trkpt lat="43.41554" lon="5.69128">
        <ele>624.513671875</ele>
        <time>2019-02-17T13:09:24Z</time>
      </trkpt>
      <trkpt lat="43.41549" lon="5.69121">
        <ele>624.513671875</ele>
        <time>2019-02-17T13:09:32Z</time>
      </trkpt>
      <trkpt lat="43.41544" lon="5.69116">
        <ele>624.513671875</ele>
        <time>2019-02-17T13:09:36Z</time>
      </trkpt>
      <trkpt lat="43.4154" lon="5.69113">
        <ele>623.55249023438</ele>
        <time>2019-02-17T13:09:41Z</time>
      </trkpt>
      <trkpt lat="43.41537" lon="5.69111">
        <ele>623.55249023438</ele>
        <time>2019-02-17T13:09:44Z</time>
      </trkpt>
      <trkpt lat="43.41524" lon="5.69106">
        <ele>621.14916992188</ele>
        <time>2019-02-17T13:09:55Z</time>
      </trkpt>
      <trkpt lat="43.4152" lon="5.69103">
        <ele>620.66845703125</ele>
        <time>2019-02-17T13:09:59Z</time>
      </trkpt>
      <trkpt lat="43.41513" lon="5.69099">
        <ele>619.70703125</ele>
        <time>2019-02-17T13:10:05Z</time>
      </trkpt>
      <trkpt lat="43.41503" lon="5.69095">
        <ele>619.22631835938</ele>
        <time>2019-02-17T13:10:13Z</time>
      </trkpt>
      <trkpt lat="43.41484" lon="5.69085">
        <ele>619.70703125</ele>
        <time>2019-02-17T13:10:29Z</time>
      </trkpt>
      <trkpt lat="43.41475" lon="5.69094">
        <ele>620.66845703125</ele>
        <time>2019-02-17T13:10:40Z</time>
      </trkpt>
      <trkpt lat="43.41461" lon="5.6911">
        <ele>623.55249023438</ele>
        <time>2019-02-17T13:10:59Z</time>
      </trkpt>
      <trkpt lat="43.41453" lon="5.6912">
        <ele>626.43627929688</ele>
        <time>2019-02-17T13:11:16Z</time>
      </trkpt>
      <trkpt lat="43.41447" lon="5.69126">
        <ele>628.83959960938</ele>
        <time>2019-02-17T13:11:27Z</time>
      </trkpt>
      <trkpt lat="43.41443" lon="5.69128">
        <ele>631.72338867188</ele>
        <time>2019-02-17T13:11:39Z</time>
      </trkpt>
      <trkpt lat="43.4144" lon="5.69127">
        <ele>633.64599609375</ele>
        <time>2019-02-17T13:12:23Z</time>
      </trkpt>
      <trkpt lat="43.41435" lon="5.69119">
        <ele>636.5302734375</ele>
        <time>2019-02-17T13:12:37Z</time>
      </trkpt>
      <trkpt lat="43.41428" lon="5.69106">
        <ele>638.93359375</ele>
        <time>2019-02-17T13:12:52Z</time>
      </trkpt>
      <trkpt lat="43.4142" lon="5.69089">
        <ele>640.37548828125</ele>
        <time>2019-02-17T13:13:06Z</time>
      </trkpt>
      <trkpt lat="43.4141" lon="5.69073">
        <ele>638.93359375</ele>
        <time>2019-02-17T13:13:24Z</time>
      </trkpt>
      <trkpt lat="43.41409" lon="5.69073">
        <ele>638.45288085938</ele>
        <time>2019-02-17T13:13:43Z</time>
      </trkpt>
      <trkpt lat="43.41408" lon="5.69066">
        <ele>637.49145507812</ele>
        <time>2019-02-17T13:14:15Z</time>
      </trkpt>
      <trkpt lat="43.41407" lon="5.69062">
        <ele>636.5302734375</ele>
        <time>2019-02-17T13:14:39Z</time>
      </trkpt>
      <trkpt lat="43.41406" lon="5.69058">
        <ele>637.0107421875</ele>
        <time>2019-02-17T13:15:58Z</time>
      </trkpt>
      <trkpt lat="43.41405" lon="5.69056">
        <ele>637.0107421875</ele>
        <time>2019-02-17T13:16:25Z</time>
      </trkpt>
      <trkpt lat="43.41405" lon="5.69055">
        <ele>636.5302734375</ele>
        <time>2019-02-17T13:16:27Z</time>
      </trkpt>
      <trkpt lat="43.414" lon="5.69027">
        <ele>633.16528320312</ele>
        <time>2019-02-17T13:16:47Z</time>
      </trkpt>
      <trkpt lat="43.41395" lon="5.69016">
        <ele>631.24291992188</ele>
        <time>2019-02-17T13:17:04Z</time>
      </trkpt>
      <trkpt lat="43.41386" lon="5.69008">
        <ele>628.35888671875</ele>
        <time>2019-02-17T13:17:19Z</time>
      </trkpt>
      <trkpt lat="43.41381" lon="5.69008">
        <ele>624.99438476562</ele>
        <time>2019-02-17T13:17:29Z</time>
      </trkpt>
      <trkpt lat="43.41381" lon="5.69007">
        <ele>624.99438476562</ele>
        <time>2019-02-17T13:17:30Z</time>
      </trkpt>
      <trkpt lat="43.41373" lon="5.68999">
        <ele>621.14916992188</ele>
        <time>2019-02-17T13:17:43Z</time>
      </trkpt>
      <trkpt lat="43.41372" lon="5.68999">
        <ele>621.14916992188</ele>
        <time>2019-02-17T13:17:44Z</time>
      </trkpt>
      <trkpt lat="43.41362" lon="5.68999">
        <ele>618.26489257812</ele>
        <time>2019-02-17T13:17:58Z</time>
      </trkpt>
      <trkpt lat="43.41354" lon="5.68992">
        <ele>614.41967773438</ele>
        <time>2019-02-17T13:18:10Z</time>
      </trkpt>
      <trkpt lat="43.41353" lon="5.68992">
        <ele>613.45849609375</ele>
        <time>2019-02-17T13:18:14Z</time>
      </trkpt>
      <trkpt lat="43.41343" lon="5.68987">
        <ele>610.57446289062</ele>
        <time>2019-02-17T13:18:31Z</time>
      </trkpt>
      <trkpt lat="43.41341" lon="5.68986">
        <ele>609.13256835938</ele>
        <time>2019-02-17T13:18:34Z</time>
      </trkpt>
      <trkpt lat="43.41331" lon="5.68986">
        <ele>606.72924804688</ele>
        <time>2019-02-17T13:18:48Z</time>
      </trkpt>
      <trkpt lat="43.41321" lon="5.68988">
        <ele>603.36450195312</ele>
        <time>2019-02-17T13:18:59Z</time>
      </trkpt>
      <trkpt lat="43.4132" lon="5.68988">
        <ele>603.36450195312</ele>
        <time>2019-02-17T13:19:00Z</time>
      </trkpt>
      <trkpt lat="43.41307" lon="5.6898">
        <ele>600.48071289062</ele>
        <time>2019-02-17T13:19:13Z</time>
      </trkpt>
      <trkpt lat="43.41291" lon="5.68979">
        <ele>598.55786132812</ele>
        <time>2019-02-17T13:19:28Z</time>
      </trkpt>
      <trkpt lat="43.41273" lon="5.6898">
        <ele>597.5966796875</ele>
        <time>2019-02-17T13:19:46Z</time>
      </trkpt>
      <trkpt lat="43.41264" lon="5.68979">
        <ele>599.03857421875</ele>
        <time>2019-02-17T13:19:57Z</time>
      </trkpt>
      <trkpt lat="43.41249" lon="5.68982">
        <ele>599.51928710938</ele>
        <time>2019-02-17T13:20:11Z</time>
      </trkpt>
      <trkpt lat="43.41241" lon="5.68982">
        <ele>600.96118164062</ele>
        <time>2019-02-17T13:20:20Z</time>
      </trkpt>
      <trkpt lat="43.41229" lon="5.68979">
        <ele>602.8837890625</ele>
        <time>2019-02-17T13:20:32Z</time>
      </trkpt>
      <trkpt lat="43.41218" lon="5.68974">
        <ele>605.76806640625</ele>
        <time>2019-02-17T13:20:48Z</time>
      </trkpt>
      <trkpt lat="43.41208" lon="5.68966">
        <ele>606.24853515625</ele>
        <time>2019-02-17T13:21:06Z</time>
      </trkpt>
      <trkpt lat="43.41207" lon="5.68966">
        <ele>605.76806640625</ele>
        <time>2019-02-17T13:21:30Z</time>
      </trkpt>
      <trkpt lat="43.41207" lon="5.68966">
        <ele>606.24853515625</ele>
        <time>2019-02-17T13:22:02Z</time>
      </trkpt>
      <trkpt lat="43.41205" lon="5.68967">
        <ele>606.24853515625</ele>
        <time>2019-02-17T13:22:26Z</time>
      </trkpt>
      <trkpt lat="43.41207" lon="5.68967">
        <ele>606.24853515625</ele>
        <time>2019-02-17T13:22:40Z</time>
      </trkpt>
      <trkpt lat="43.41197" lon="5.68965">
        <ele>607.2099609375</ele>
        <time>2019-02-17T13:22:52Z</time>
      </trkpt>
      <trkpt lat="43.41191" lon="5.68968">
        <ele>608.65185546875</ele>
        <time>2019-02-17T13:23:04Z</time>
      </trkpt>
      <trkpt lat="43.41189" lon="5.68968">
        <ele>609.13256835938</ele>
        <time>2019-02-17T13:23:07Z</time>
      </trkpt>
      <trkpt lat="43.41177" lon="5.68967">
        <ele>611.53588867188</ele>
        <time>2019-02-17T13:23:21Z</time>
      </trkpt>
      <trkpt lat="43.41164" lon="5.68969">
        <ele>613.45849609375</ele>
        <time>2019-02-17T13:23:36Z</time>
      </trkpt>
      <trkpt lat="43.41159" lon="5.68969">
        <ele>614.41967773438</ele>
        <time>2019-02-17T13:23:40Z</time>
      </trkpt>
      <trkpt lat="43.41155" lon="5.68967">
        <ele>614.41967773438</ele>
        <time>2019-02-17T13:23:45Z</time>
      </trkpt>
      <trkpt lat="43.41152" lon="5.68957">
        <ele>615.86181640625</ele>
        <time>2019-02-17T13:23:56Z</time>
      </trkpt>
      <trkpt lat="43.41148" lon="5.68952">
        <ele>614.41967773438</ele>
        <time>2019-02-17T13:24:01Z</time>
      </trkpt>
      <trkpt lat="43.41143" lon="5.6894">
        <ele>612.4970703125</ele>
        <time>2019-02-17T13:24:11Z</time>
      </trkpt>
      <trkpt lat="43.4114" lon="5.68939">
        <ele>612.0166015625</ele>
        <time>2019-02-17T13:24:13Z</time>
      </trkpt>
      <trkpt lat="43.41137" lon="5.68932">
        <ele>610.57446289062</ele>
        <time>2019-02-17T13:24:19Z</time>
      </trkpt>
      <trkpt lat="43.41135" lon="5.68931">
        <ele>610.09375</ele>
        <time>2019-02-17T13:24:21Z</time>
      </trkpt>
      <trkpt lat="43.41131" lon="5.68919">
        <ele>609.13256835938</ele>
        <time>2019-02-17T13:24:29Z</time>
      </trkpt>
      <trkpt lat="43.41118" lon="5.68891">
        <ele>606.72924804688</ele>
        <time>2019-02-17T13:24:47Z</time>
      </trkpt>
      <trkpt lat="43.41111" lon="5.68883">
        <ele>605.76806640625</ele>
        <time>2019-02-17T13:24:54Z</time>
      </trkpt>
      <trkpt lat="43.41109" lon="5.68879">
        <ele>604.326171875</ele>
        <time>2019-02-17T13:24:58Z</time>
      </trkpt>
      <trkpt lat="43.41108" lon="5.68875">
        <ele>604.326171875</ele>
        <time>2019-02-17T13:25:01Z</time>
      </trkpt>
      <trkpt lat="43.41103" lon="5.6886">
        <ele>602.40307617188</ele>
        <time>2019-02-17T13:25:13Z</time>
      </trkpt>
      <trkpt lat="43.41101" lon="5.68855">
        <ele>601.92260742188</ele>
        <time>2019-02-17T13:25:17Z</time>
      </trkpt>
      <trkpt lat="43.41099" lon="5.6885">
        <ele>601.44189453125</ele>
        <time>2019-02-17T13:25:22Z</time>
      </trkpt>
      <trkpt lat="43.4109" lon="5.68845">
        <ele>599.51928710938</ele>
        <time>2019-02-17T13:25:28Z</time>
      </trkpt>
      <trkpt lat="43.41082" lon="5.68835">
        <ele>598.07739257812</ele>
        <time>2019-02-17T13:25:37Z</time>
      </trkpt>
      <trkpt lat="43.41079" lon="5.68832">
        <ele>597.5966796875</ele>
        <time>2019-02-17T13:25:41Z</time>
      </trkpt>
      <trkpt lat="43.41078" lon="5.68825">
        <ele>596.63549804688</ele>
        <time>2019-02-17T13:25:46Z</time>
      </trkpt>
      <trkpt lat="43.41076" lon="5.68823">
        <ele>596.15478515625</ele>
        <time>2019-02-17T13:25:48Z</time>
      </trkpt>
      <trkpt lat="43.41066" lon="5.68808">
        <ele>592.79028320312</ele>
        <time>2019-02-17T13:26:05Z</time>
      </trkpt>
      <trkpt lat="43.41065" lon="5.68807">
        <ele>592.79028320312</ele>
        <time>2019-02-17T13:26:06Z</time>
      </trkpt>
      <trkpt lat="43.41063" lon="5.68804">
        <ele>592.3095703125</ele>
        <time>2019-02-17T13:26:09Z</time>
      </trkpt>
      <trkpt lat="43.41054" lon="5.68793">
        <ele>590.38696289062</ele>
        <time>2019-02-17T13:26:19Z</time>
      </trkpt>
      <trkpt lat="43.41035" lon="5.68781">
        <ele>587.50268554688</ele>
        <time>2019-02-17T13:26:37Z</time>
      </trkpt>
      <trkpt lat="43.41025" lon="5.68774">
        <ele>585.580078125</ele>
        <time>2019-02-17T13:26:49Z</time>
      </trkpt>
      <trkpt lat="43.41016" lon="5.68757">
        <ele>583.1767578125</ele>
        <time>2019-02-17T13:27:04Z</time>
      </trkpt>
      <trkpt lat="43.41005" lon="5.68744">
        <ele>580.29296875</ele>
        <time>2019-02-17T13:27:19Z</time>
      </trkpt>
      <trkpt lat="43.40994" lon="5.68732">
        <ele>577.8896484375</ele>
        <time>2019-02-17T13:27:36Z</time>
      </trkpt>
      <trkpt lat="43.40991" lon="5.68728">
        <ele>576.44775390625</ele>
        <time>2019-02-17T13:27:40Z</time>
      </trkpt>
      <trkpt lat="43.40985" lon="5.68722">
        <ele>575.005859375</ele>
        <time>2019-02-17T13:27:53Z</time>
      </trkpt>
      <trkpt lat="43.40978" lon="5.68709">
        <ele>572.6025390625</ele>
        <time>2019-02-17T13:28:10Z</time>
      </trkpt>
      <trkpt lat="43.40969" lon="5.68706">
        <ele>569.71850585938</ele>
        <time>2019-02-17T13:28:24Z</time>
      </trkpt>
      <trkpt lat="43.40963" lon="5.68698">
        <ele>567.31518554688</ele>
        <time>2019-02-17T13:28:39Z</time>
      </trkpt>
      <trkpt lat="43.40958" lon="5.68691">
        <ele>565.87329101562</ele>
        <time>2019-02-17T13:28:52Z</time>
      </trkpt>
      <trkpt lat="43.40951" lon="5.68683">
        <ele>562.9892578125</ele>
        <time>2019-02-17T13:29:06Z</time>
      </trkpt>
      <trkpt lat="43.40941" lon="5.68676">
        <ele>561.06665039062</ele>
        <time>2019-02-17T13:29:21Z</time>
      </trkpt>
      <trkpt lat="43.40932" lon="5.68661">
        <ele>558.18286132812</ele>
        <time>2019-02-17T13:29:40Z</time>
      </trkpt>
      <trkpt lat="43.40922" lon="5.6865">
        <ele>555.779296875</ele>
        <time>2019-02-17T13:29:56Z</time>
      </trkpt>
      <trkpt lat="43.40919" lon="5.68647">
        <ele>555.29858398438</ele>
        <time>2019-02-17T13:30:00Z</time>
      </trkpt>
      <trkpt lat="43.40903" lon="5.68636">
        <ele>553.85668945312</ele>
        <time>2019-02-17T13:30:17Z</time>
      </trkpt>
      <trkpt lat="43.40887" lon="5.68625">
        <ele>552.89526367188</ele>
        <time>2019-02-17T13:30:33Z</time>
      </trkpt>
      <trkpt lat="43.40868" lon="5.68617">
        <ele>551.93408203125</ele>
        <time>2019-02-17T13:30:50Z</time>
      </trkpt>
      <trkpt lat="43.40862" lon="5.68612">
        <ele>551.93408203125</ele>
        <time>2019-02-17T13:30:56Z</time>
      </trkpt>
      <trkpt lat="43.40856" lon="5.68611">
        <ele>551.93408203125</ele>
        <time>2019-02-17T13:31:01Z</time>
      </trkpt>
      <trkpt lat="43.40851" lon="5.6861">
        <ele>551.93408203125</ele>
        <time>2019-02-17T13:31:05Z</time>
      </trkpt>
      <trkpt lat="43.40849" lon="5.68608">
        <ele>551.45336914062</ele>
        <time>2019-02-17T13:31:08Z</time>
      </trkpt>
      <trkpt lat="43.40833" lon="5.68607">
        <ele>550.97265625</ele>
        <time>2019-02-17T13:31:19Z</time>
      </trkpt>
      <trkpt lat="43.40812" lon="5.68595">
        <ele>547.60815429688</ele>
        <time>2019-02-17T13:31:39Z</time>
      </trkpt>
      <trkpt lat="43.40798" lon="5.68589">
        <ele>544.72424316406</ele>
        <time>2019-02-17T13:31:56Z</time>
      </trkpt>
      <trkpt lat="43.40786" lon="5.68584">
        <ele>540.87890625</ele>
        <time>2019-02-17T13:32:13Z</time>
      </trkpt>
      <trkpt lat="43.40776" lon="5.68582">
        <ele>539.43688964844</ele>
        <time>2019-02-17T13:32:25Z</time>
      </trkpt>
      <trkpt lat="43.40771" lon="5.68581">
        <ele>538.95629882812</ele>
        <time>2019-02-17T13:32:30Z</time>
      </trkpt>
      <trkpt lat="43.40758" lon="5.68566">
        <ele>538.47570800781</ele>
        <time>2019-02-17T13:32:47Z</time>
      </trkpt>
      <trkpt lat="43.4075" lon="5.6856">
        <ele>538.95629882812</ele>
        <time>2019-02-17T13:32:56Z</time>
      </trkpt>
      <trkpt lat="43.40734" lon="5.68546">
        <ele>537.51428222656</ele>
        <time>2019-02-17T13:33:12Z</time>
      </trkpt>
      <trkpt lat="43.40721" lon="5.68538">
        <ele>534.14965820312</ele>
        <time>2019-02-17T13:33:27Z</time>
      </trkpt>
      <trkpt lat="43.40712" lon="5.68524">
        <ele>530.78515625</ele>
        <time>2019-02-17T13:33:44Z</time>
      </trkpt>
      <trkpt lat="43.4071" lon="5.68521">
        <ele>530.30444335938</ele>
        <time>2019-02-17T13:33:47Z</time>
      </trkpt>
      <trkpt lat="43.40697" lon="5.68503">
        <ele>528.86254882812</ele>
        <time>2019-02-17T13:33:59Z</time>
      </trkpt>
      <trkpt lat="43.40696" lon="5.68501">
        <ele>529.34313964844</ele>
        <time>2019-02-17T13:34:01Z</time>
      </trkpt>
      <trkpt lat="43.40694" lon="5.685">
        <ele>530.30444335938</ele>
        <time>2019-02-17T13:34:22Z</time>
      </trkpt>
      <trkpt lat="43.40691" lon="5.68491">
        <ele>530.78515625</ele>
        <time>2019-02-17T13:34:50Z</time>
      </trkpt>
      <trkpt lat="43.40683" lon="5.68479">
        <ele>532.22705078125</ele>
        <time>2019-02-17T13:35:06Z</time>
      </trkpt>
      <trkpt lat="43.40678" lon="5.68466">
        <ele>534.14965820312</ele>
        <time>2019-02-17T13:35:18Z</time>
      </trkpt>
      <trkpt lat="43.40665" lon="5.68453">
        <ele>535.59155273438</ele>
        <time>2019-02-17T13:35:34Z</time>
      </trkpt>
      <trkpt lat="43.40653" lon="5.68441">
        <ele>536.55310058594</ele>
        <time>2019-02-17T13:35:47Z</time>
      </trkpt>
      <trkpt lat="43.40647" lon="5.68432">
        <ele>537.99499511719</ele>
        <time>2019-02-17T13:35:57Z</time>
      </trkpt>
      <trkpt lat="43.40644" lon="5.68428">
        <ele>538.95629882812</ele>
        <time>2019-02-17T13:36:01Z</time>
      </trkpt>
      <trkpt lat="43.40637" lon="5.68414">
        <ele>540.87890625</ele>
        <time>2019-02-17T13:36:14Z</time>
      </trkpt>
      <trkpt lat="43.40635" lon="5.68404">
        <ele>541.84020996094</ele>
        <time>2019-02-17T13:36:25Z</time>
      </trkpt>
      <trkpt lat="43.40629" lon="5.68395">
        <ele>543.28210449219</ele>
        <time>2019-02-17T13:36:35Z</time>
      </trkpt>
      <trkpt lat="43.40619" lon="5.68384">
        <ele>544.72424316406</ele>
        <time>2019-02-17T13:36:50Z</time>
      </trkpt>
      <trkpt lat="43.40617" lon="5.6838">
        <ele>544.72424316406</ele>
        <time>2019-02-17T13:36:54Z</time>
      </trkpt>
      <trkpt lat="43.40607" lon="5.68368">
        <ele>546.64685058594</ele>
        <time>2019-02-17T13:37:09Z</time>
      </trkpt>
      <trkpt lat="43.40598" lon="5.68356">
        <ele>549.05004882812</ele>
        <time>2019-02-17T13:37:23Z</time>
      </trkpt>
      <trkpt lat="43.40578" lon="5.68342">
        <ele>552.89526367188</ele>
        <time>2019-02-17T13:37:42Z</time>
      </trkpt>
      <trkpt lat="43.40564" lon="5.68336">
        <ele>553.85668945312</ele>
        <time>2019-02-17T13:37:50Z</time>
      </trkpt>
      <trkpt lat="43.40551" lon="5.68327">
        <ele>555.779296875</ele>
        <time>2019-02-17T13:38:03Z</time>
      </trkpt>
      <trkpt lat="43.40524" lon="5.68314">
        <ele>558.66333007812</ele>
        <time>2019-02-17T13:38:24Z</time>
      </trkpt>
      <trkpt lat="43.40514" lon="5.68308">
        <ele>560.10522460938</ele>
        <time>2019-02-17T13:38:35Z</time>
      </trkpt>
      <trkpt lat="43.40489" lon="5.68296">
        <ele>562.02807617188</ele>
        <time>2019-02-17T13:38:55Z</time>
      </trkpt>
      <trkpt lat="43.40475" lon="5.68289">
        <ele>564.43115234375</ele>
        <time>2019-02-17T13:39:09Z</time>
      </trkpt>
      <trkpt lat="43.4046" lon="5.68279">
        <ele>567.31518554688</ele>
        <time>2019-02-17T13:39:24Z</time>
      </trkpt>
      <trkpt lat="43.40447" lon="5.68271">
        <ele>569.23779296875</ele>
        <time>2019-02-17T13:39:37Z</time>
      </trkpt>
      <trkpt lat="43.4043" lon="5.68265">
        <ele>571.64086914062</ele>
        <time>2019-02-17T13:39:51Z</time>
      </trkpt>
      <trkpt lat="43.40412" lon="5.68259">
        <ele>573.56396484375</ele>
        <time>2019-02-17T13:40:06Z</time>
      </trkpt>
      <trkpt lat="43.40392" lon="5.6825">
        <ele>575.96704101562</ele>
        <time>2019-02-17T13:40:22Z</time>
      </trkpt>
      <trkpt lat="43.40373" lon="5.68241">
        <ele>576.92846679688</ele>
        <time>2019-02-17T13:40:39Z</time>
      </trkpt>
      <trkpt lat="43.40365" lon="5.68236">
        <ele>577.8896484375</ele>
        <time>2019-02-17T13:40:48Z</time>
      </trkpt>
      <trkpt lat="43.40352" lon="5.68226">
        <ele>579.33154296875</ele>
        <time>2019-02-17T13:41:00Z</time>
      </trkpt>
      <trkpt lat="43.40346" lon="5.68221">
        <ele>579.81225585938</ele>
        <time>2019-02-17T13:41:04Z</time>
      </trkpt>
      <trkpt lat="43.40339" lon="5.68221">
        <ele>579.81225585938</ele>
        <time>2019-02-17T13:41:09Z</time>
      </trkpt>
      <trkpt lat="43.40336" lon="5.68217">
        <ele>579.33154296875</ele>
        <time>2019-02-17T13:41:11Z</time>
      </trkpt>
      <trkpt lat="43.4033" lon="5.68211">
        <ele>579.81225585938</ele>
        <time>2019-02-17T13:41:16Z</time>
      </trkpt>
      <trkpt lat="43.40316" lon="5.6819">
        <ele>582.21557617188</ele>
        <time>2019-02-17T13:41:31Z</time>
      </trkpt>
      <trkpt lat="43.40295" lon="5.68154">
        <ele>585.099609375</ele>
        <time>2019-02-17T13:41:54Z</time>
      </trkpt>
      <trkpt lat="43.40289" lon="5.68142">
        <ele>585.580078125</ele>
        <time>2019-02-17T13:42:03Z</time>
      </trkpt>
      <trkpt lat="43.40276" lon="5.68115">
        <ele>587.9833984375</ele>
        <time>2019-02-17T13:42:19Z</time>
      </trkpt>
      <trkpt lat="43.40271" lon="5.68102">
        <ele>588.94506835938</ele>
        <time>2019-02-17T13:42:27Z</time>
      </trkpt>
      <trkpt lat="43.40268" lon="5.68088">
        <ele>589.90625</ele>
        <time>2019-02-17T13:42:35Z</time>
      </trkpt>
      <trkpt lat="43.40262" lon="5.68066">
        <ele>592.3095703125</ele>
        <time>2019-02-17T13:42:48Z</time>
      </trkpt>
      <trkpt lat="43.40252" lon="5.68043">
        <ele>594.23217773438</ele>
        <time>2019-02-17T13:43:04Z</time>
      </trkpt>
      <trkpt lat="43.40241" lon="5.68017">
        <ele>596.15478515625</ele>
        <time>2019-02-17T13:43:21Z</time>
      </trkpt>
      <trkpt lat="43.4024" lon="5.68014">
        <ele>596.63549804688</ele>
        <time>2019-02-17T13:43:23Z</time>
      </trkpt>
      <trkpt lat="43.40232" lon="5.6798">
        <ele>600</ele>
        <time>2019-02-17T13:43:43Z</time>
      </trkpt>
      <trkpt lat="43.40227" lon="5.67956">
        <ele>603.84521484375</ele>
        <time>2019-02-17T13:44:00Z</time>
      </trkpt>
      <trkpt lat="43.40223" lon="5.67911">
        <ele>605.28735351562</ele>
        <time>2019-02-17T13:44:24Z</time>
      </trkpt>
      <trkpt lat="43.40215" lon="5.67873">
        <ele>608.17138671875</ele>
        <time>2019-02-17T13:44:46Z</time>
      </trkpt>
      <trkpt lat="43.40211" lon="5.67849">
        <ele>611.05517578125</ele>
        <time>2019-02-17T13:45:00Z</time>
      </trkpt>
      <trkpt lat="43.40208" lon="5.67833">
        <ele>612.4970703125</ele>
        <time>2019-02-17T13:45:10Z</time>
      </trkpt>
      <trkpt lat="43.40204" lon="5.67801">
        <ele>614.41967773438</ele>
        <time>2019-02-17T13:45:29Z</time>
      </trkpt>
      <trkpt lat="43.40201" lon="5.67785">
        <ele>615.86181640625</ele>
        <time>2019-02-17T13:45:38Z</time>
      </trkpt>
      <trkpt lat="43.40199" lon="5.67778">
        <ele>616.34228515625</ele>
        <time>2019-02-17T13:45:42Z</time>
      </trkpt>
      <trkpt lat="43.40196" lon="5.67772">
        <ele>617.3037109375</ele>
        <time>2019-02-17T13:45:46Z</time>
      </trkpt>
      <trkpt lat="43.40189" lon="5.67735">
        <ele>620.18774414062</ele>
        <time>2019-02-17T13:46:06Z</time>
      </trkpt>
      <trkpt lat="43.40186" lon="5.67702">
        <ele>623.07177734375</ele>
        <time>2019-02-17T13:46:27Z</time>
      </trkpt>
      <trkpt lat="43.40193" lon="5.67676">
        <ele>626.43627929688</ele>
        <time>2019-02-17T13:46:44Z</time>
      </trkpt>
      <trkpt lat="43.40197" lon="5.67644">
        <ele>628.35888671875</ele>
        <time>2019-02-17T13:47:02Z</time>
      </trkpt>
      <trkpt lat="43.40189" lon="5.6761">
        <ele>630.28149414062</ele>
        <time>2019-02-17T13:47:20Z</time>
      </trkpt>
      <trkpt lat="43.40187" lon="5.67594">
        <ele>632.2041015625</ele>
        <time>2019-02-17T13:47:30Z</time>
      </trkpt>
      <trkpt lat="43.4019" lon="5.67569">
        <ele>633.64599609375</ele>
        <time>2019-02-17T13:47:45Z</time>
      </trkpt>
      <trkpt lat="43.40194" lon="5.67554">
        <ele>634.607421875</ele>
        <time>2019-02-17T13:47:54Z</time>
      </trkpt>
      <trkpt lat="43.40202" lon="5.67531">
        <ele>635.56860351562</ele>
        <time>2019-02-17T13:48:07Z</time>
      </trkpt>
      <trkpt lat="43.40202" lon="5.67527">
        <ele>635.56860351562</ele>
        <time>2019-02-17T13:48:09Z</time>
      </trkpt>
      <trkpt lat="43.40211" lon="5.67495">
        <ele>637.0107421875</ele>
        <time>2019-02-17T13:48:28Z</time>
      </trkpt>
      <trkpt lat="43.40228" lon="5.67473">
        <ele>638.45288085938</ele>
        <time>2019-02-17T13:48:46Z</time>
      </trkpt>
      <trkpt lat="43.40236" lon="5.67462">
        <ele>639.4140625</ele>
        <time>2019-02-17T13:48:56Z</time>
      </trkpt>
      <trkpt lat="43.40235" lon="5.6746">
        <ele>639.4140625</ele>
        <time>2019-02-17T13:49:02Z</time>
      </trkpt>
      <trkpt lat="43.40218" lon="5.67482">
        <ele>637.97216796875</ele>
        <time>2019-02-17T13:49:21Z</time>
      </trkpt>
      <trkpt lat="43.40199" lon="5.67506">
        <ele>636.5302734375</ele>
        <time>2019-02-17T13:49:41Z</time>
      </trkpt>
      <trkpt lat="43.40187" lon="5.6752">
        <ele>637.49145507812</ele>
        <time>2019-02-17T13:49:55Z</time>
      </trkpt>
      <trkpt lat="43.40182" lon="5.67517">
        <ele>637.97216796875</ele>
        <time>2019-02-17T13:50:01Z</time>
      </trkpt>
      <trkpt lat="43.40162" lon="5.67524">
        <ele>638.45288085938</ele>
        <time>2019-02-17T13:50:22Z</time>
      </trkpt>
      <trkpt lat="43.40158" lon="5.6753">
        <ele>638.45288085938</ele>
        <time>2019-02-17T13:50:38Z</time>
      </trkpt>
      <trkpt lat="43.40159" lon="5.67522">
        <ele>638.93359375</ele>
        <time>2019-02-17T13:51:05Z</time>
      </trkpt>
      <trkpt lat="43.40158" lon="5.67523">
        <ele>638.93359375</ele>
        <time>2019-02-17T13:51:43Z</time>
      </trkpt>
      <trkpt lat="43.40157" lon="5.67522">
        <ele>638.45288085938</ele>
        <time>2019-02-17T13:53:20Z</time>
      </trkpt>
      <trkpt lat="43.40158" lon="5.67516">
        <ele>638.93359375</ele>
        <time>2019-02-17T13:54:07Z</time>
      </trkpt>
      <trkpt lat="43.40157" lon="5.67502">
        <ele>639.4140625</ele>
        <time>2019-02-17T13:54:16Z</time>
      </trkpt>
      <trkpt lat="43.40153" lon="5.67481">
        <ele>641.33666992188</ele>
        <time>2019-02-17T13:54:28Z</time>
      </trkpt>
      <trkpt lat="43.40152" lon="5.67478">
        <ele>641.8173828125</ele>
        <time>2019-02-17T13:54:31Z</time>
      </trkpt>
      <trkpt lat="43.40145" lon="5.67467">
        <ele>642.29809570312</ele>
        <time>2019-02-17T13:54:39Z</time>
      </trkpt>
      <trkpt lat="43.40139" lon="5.6746">
        <ele>643.25927734375</ele>
        <time>2019-02-17T13:54:47Z</time>
      </trkpt>
      <trkpt lat="43.40131" lon="5.67453">
        <ele>644.701171875</ele>
        <time>2019-02-17T13:54:56Z</time>
      </trkpt>
      <trkpt lat="43.40127" lon="5.67437">
        <ele>645.66259765625</ele>
        <time>2019-02-17T13:55:08Z</time>
      </trkpt>
      <trkpt lat="43.40125" lon="5.67429">
        <ele>647.1044921875</ele>
        <time>2019-02-17T13:55:14Z</time>
      </trkpt>
      <trkpt lat="43.40125" lon="5.67405">
        <ele>650.46923828125</ele>
        <time>2019-02-17T13:55:30Z</time>
      </trkpt>
      <trkpt lat="43.40126" lon="5.67403">
        <ele>650.46923828125</ele>
        <time>2019-02-17T13:55:31Z</time>
      </trkpt>
      <trkpt lat="43.40119" lon="5.67385">
        <ele>654.31469726562</ele>
        <time>2019-02-17T13:55:45Z</time>
      </trkpt>
      <trkpt lat="43.40121" lon="5.67377">
        <ele>654.79516601562</ele>
        <time>2019-02-17T13:55:51Z</time>
      </trkpt>
      <trkpt lat="43.40124" lon="5.6737">
        <ele>655.75659179688</ele>
        <time>2019-02-17T13:55:58Z</time>
      </trkpt>
      <trkpt lat="43.40122" lon="5.67363">
        <ele>657.67919921875</ele>
        <time>2019-02-17T13:56:05Z</time>
      </trkpt>
      <trkpt lat="43.40135" lon="5.67332">
        <ele>659.12109375</ele>
        <time>2019-02-17T13:56:11Z</time>
      </trkpt>
      <trkpt lat="43.40114" lon="5.67344">
        <ele>661.04370117188</ele>
        <time>2019-02-17T13:56:28Z</time>
      </trkpt>
      <trkpt lat="43.40108" lon="5.67337">
        <ele>662.96630859375</ele>
        <time>2019-02-17T13:56:39Z</time>
      </trkpt>
      <trkpt lat="43.40102" lon="5.67324">
        <ele>662.48559570312</ele>
        <time>2019-02-17T13:56:50Z</time>
      </trkpt>
      <trkpt lat="43.40093" lon="5.67315">
        <ele>664.408203125</ele>
        <time>2019-02-17T13:57:02Z</time>
      </trkpt>
      <trkpt lat="43.40087" lon="5.67307">
        <ele>664.88891601562</ele>
        <time>2019-02-17T13:57:08Z</time>
      </trkpt>
      <trkpt lat="43.40078" lon="5.67299">
        <ele>667.77270507812</ele>
        <time>2019-02-17T13:57:27Z</time>
      </trkpt>
      <trkpt lat="43.40071" lon="5.67304">
        <ele>669.69580078125</ele>
        <time>2019-02-17T13:57:42Z</time>
      </trkpt>
      <trkpt lat="43.40062" lon="5.67301">
        <ele>672.57958984375</ele>
        <time>2019-02-17T13:57:57Z</time>
      </trkpt>
      <trkpt lat="43.40061" lon="5.67298">
        <ele>674.50219726562</ele>
        <time>2019-02-17T13:58:09Z</time>
      </trkpt>
      <trkpt lat="43.4006" lon="5.67289">
        <ele>675.46337890625</ele>
        <time>2019-02-17T13:58:23Z</time>
      </trkpt>
      <trkpt lat="43.40059" lon="5.67277">
        <ele>676.4248046875</ele>
        <time>2019-02-17T13:58:40Z</time>
      </trkpt>
      <trkpt lat="43.40053" lon="5.67255">
        <ele>678.34741210938</ele>
        <time>2019-02-17T13:58:58Z</time>
      </trkpt>
      <trkpt lat="43.40058" lon="5.6724">
        <ele>680.75073242188</ele>
        <time>2019-02-17T13:59:13Z</time>
      </trkpt>
      <trkpt lat="43.40058" lon="5.67237">
        <ele>680.27001953125</ele>
        <time>2019-02-17T13:59:31Z</time>
      </trkpt>
      <trkpt lat="43.40058" lon="5.67231">
        <ele>680.27001953125</ele>
        <time>2019-02-17T13:59:42Z</time>
      </trkpt>
      <trkpt lat="43.40056" lon="5.67224">
        <ele>680.75073242188</ele>
        <time>2019-02-17T13:59:48Z</time>
      </trkpt>
      <trkpt lat="43.40055" lon="5.6721">
        <ele>683.15380859375</ele>
        <time>2019-02-17T14:00:02Z</time>
      </trkpt>
      <trkpt lat="43.40052" lon="5.6719">
        <ele>684.59619140625</ele>
        <time>2019-02-17T14:00:18Z</time>
      </trkpt>
      <trkpt lat="43.40053" lon="5.67171">
        <ele>687.47998046875</ele>
        <time>2019-02-17T14:00:32Z</time>
      </trkpt>
      <trkpt lat="43.4005" lon="5.6716">
        <ele>689.88330078125</ele>
        <time>2019-02-17T14:00:46Z</time>
      </trkpt>
      <trkpt lat="43.40048" lon="5.67146">
        <ele>691.80590820312</ele>
        <time>2019-02-17T14:01:00Z</time>
      </trkpt>
      <trkpt lat="43.40045" lon="5.67131">
        <ele>692.76733398438</ele>
        <time>2019-02-17T14:01:15Z</time>
      </trkpt>
      <trkpt lat="43.40042" lon="5.67117">
        <ele>694.20922851562</ele>
        <time>2019-02-17T14:01:35Z</time>
      </trkpt>
      <trkpt lat="43.40039" lon="5.67103">
        <ele>694.68969726562</ele>
        <time>2019-02-17T14:01:53Z</time>
      </trkpt>
      <trkpt lat="43.40036" lon="5.67091">
        <ele>696.1318359375</ele>
        <time>2019-02-17T14:02:13Z</time>
      </trkpt>
      <trkpt lat="43.40033" lon="5.67079">
        <ele>699.015625</ele>
        <time>2019-02-17T14:02:26Z</time>
      </trkpt>
      <trkpt lat="43.40029" lon="5.67065">
        <ele>702.38037109375</ele>
        <time>2019-02-17T14:02:46Z</time>
      </trkpt>
      <trkpt lat="43.40023" lon="5.67054">
        <ele>704.78369140625</ele>
        <time>2019-02-17T14:03:02Z</time>
      </trkpt>
      <trkpt lat="43.40012" lon="5.67051">
        <ele>706.2255859375</ele>
        <time>2019-02-17T14:03:19Z</time>
      </trkpt>
      <trkpt lat="43.40007" lon="5.67038">
        <ele>708.1484375</ele>
        <time>2019-02-17T14:03:34Z</time>
      </trkpt>
      <trkpt lat="43.39994" lon="5.67042">
        <ele>707.66772460938</ele>
        <time>2019-02-17T14:03:54Z</time>
      </trkpt>
      <trkpt lat="43.39996" lon="5.67042">
        <ele>707.18701171875</ele>
        <time>2019-02-17T14:04:14Z</time>
      </trkpt>
      <trkpt lat="43.39997" lon="5.6704">
        <ele>708.1484375</ele>
        <time>2019-02-17T14:04:31Z</time>
      </trkpt>
      <trkpt lat="43.39997" lon="5.6704">
        <ele>708.1484375</ele>
        <time>2019-02-17T14:04:51Z</time>
      </trkpt>
      <trkpt lat="43.39997" lon="5.6704">
        <ele>708.1484375</ele>
        <time>2019-02-17T14:05:18Z</time>
      </trkpt>
      <trkpt lat="43.39997" lon="5.67041">
        <ele>707.66772460938</ele>
        <time>2019-02-17T14:05:46Z</time>
      </trkpt>
      <trkpt lat="43.39997" lon="5.6704">
        <ele>708.62890625</ele>
        <time>2019-02-17T14:06:15Z</time>
      </trkpt>
      <trkpt lat="43.39997" lon="5.67041">
        <ele>708.1484375</ele>
        <time>2019-02-17T14:07:06Z</time>
      </trkpt>
      <trkpt lat="43.39994" lon="5.67042">
        <ele>708.62890625</ele>
        <time>2019-02-17T14:08:00Z</time>
      </trkpt>
      <trkpt lat="43.39997" lon="5.67038">
        <ele>708.1484375</ele>
        <time>2019-02-17T14:08:08Z</time>
      </trkpt>
      <trkpt lat="43.40007" lon="5.6704">
        <ele>709.10961914062</ele>
        <time>2019-02-17T14:08:18Z</time>
      </trkpt>
      <trkpt lat="43.40011" lon="5.67051">
        <ele>708.1484375</ele>
        <time>2019-02-17T14:08:29Z</time>
      </trkpt>
      <trkpt lat="43.40018" lon="5.67052">
        <ele>706.70629882812</ele>
        <time>2019-02-17T14:08:43Z</time>
      </trkpt>
      <trkpt lat="43.40028" lon="5.67051">
        <ele>704.78369140625</ele>
        <time>2019-02-17T14:08:59Z</time>
      </trkpt>
      <trkpt lat="43.40033" lon="5.67038">
        <ele>703.82250976562</ele>
        <time>2019-02-17T14:09:16Z</time>
      </trkpt>
      <trkpt lat="43.40033" lon="5.67037">
        <ele>704.30322265625</ele>
        <time>2019-02-17T14:09:23Z</time>
      </trkpt>
      <trkpt lat="43.40027" lon="5.67016">
        <ele>701.41918945312</ele>
        <time>2019-02-17T14:09:39Z</time>
      </trkpt>
      <trkpt lat="43.40021" lon="5.67005">
        <ele>700.9384765625</ele>
        <time>2019-02-17T14:09:49Z</time>
      </trkpt>
      <trkpt lat="43.40019" lon="5.67003">
        <ele>699.97705078125</ele>
        <time>2019-02-17T14:09:52Z</time>
      </trkpt>
      <trkpt lat="43.40011" lon="5.67002">
        <ele>699.015625</ele>
        <time>2019-02-17T14:10:00Z</time>
      </trkpt>
      <trkpt lat="43.40006" lon="5.67005">
        <ele>699.015625</ele>
        <time>2019-02-17T14:10:05Z</time>
      </trkpt>
      <trkpt lat="43.40003" lon="5.67005">
        <ele>698.05444335938</ele>
        <time>2019-02-17T14:10:08Z</time>
      </trkpt>
      <trkpt lat="43.40001" lon="5.67003">
        <ele>698.53491210938</ele>
        <time>2019-02-17T14:10:10Z</time>
      </trkpt>
      <trkpt lat="43.40002" lon="5.66996">
        <ele>697.57373046875</ele>
        <time>2019-02-17T14:10:15Z</time>
      </trkpt>
      <trkpt lat="43.4002" lon="5.66979">
        <ele>694.20922851562</ele>
        <time>2019-02-17T14:10:34Z</time>
      </trkpt>
      <trkpt lat="43.40042" lon="5.66985">
        <ele>690.84448242188</ele>
        <time>2019-02-17T14:10:53Z</time>
      </trkpt>
      <trkpt lat="43.40057" lon="5.66988">
        <ele>688.44140625</ele>
        <time>2019-02-17T14:11:08Z</time>
      </trkpt>
      <trkpt lat="43.40069" lon="5.66998">
        <ele>686.0380859375</ele>
        <time>2019-02-17T14:11:22Z</time>
      </trkpt>
      <trkpt lat="43.40087" lon="5.67004">
        <ele>682.67333984375</ele>
        <time>2019-02-17T14:11:37Z</time>
      </trkpt>
      <trkpt lat="43.40106" lon="5.67021">
        <ele>679.30859375</ele>
        <time>2019-02-17T14:11:57Z</time>
      </trkpt>
      <trkpt lat="43.40114" lon="5.67045">
        <ele>675.94409179688</ele>
        <time>2019-02-17T14:12:16Z</time>
      </trkpt>
      <trkpt lat="43.4012" lon="5.67073">
        <ele>673.541015625</ele>
        <time>2019-02-17T14:12:36Z</time>
      </trkpt>
      <trkpt lat="43.40121" lon="5.67075">
        <ele>672.57958984375</ele>
        <time>2019-02-17T14:12:39Z</time>
      </trkpt>
      <trkpt lat="43.40127" lon="5.6708">
        <ele>671.6181640625</ele>
        <time>2019-02-17T14:12:45Z</time>
      </trkpt>
      <trkpt lat="43.40134" lon="5.67088">
        <ele>668.734375</ele>
        <time>2019-02-17T14:12:58Z</time>
      </trkpt>
      <trkpt lat="43.40141" lon="5.67105">
        <ele>666.8115234375</ele>
        <time>2019-02-17T14:13:15Z</time>
      </trkpt>
      <trkpt lat="43.40145" lon="5.67129">
        <ele>663.92749023438</ele>
        <time>2019-02-17T14:13:32Z</time>
      </trkpt>
      <trkpt lat="43.40151" lon="5.67131">
        <ele>662.96630859375</ele>
        <time>2019-02-17T14:13:39Z</time>
      </trkpt>
      <trkpt lat="43.40165" lon="5.67145">
        <ele>660.08227539062</ele>
        <time>2019-02-17T14:13:55Z</time>
      </trkpt>
      <trkpt lat="43.40168" lon="5.67153">
        <ele>659.12109375</ele>
        <time>2019-02-17T14:14:04Z</time>
      </trkpt>
      <trkpt lat="43.40171" lon="5.67155">
        <ele>658.15991210938</ele>
        <time>2019-02-17T14:14:07Z</time>
      </trkpt>
      <trkpt lat="43.40174" lon="5.67155">
        <ele>657.67919921875</ele>
        <time>2019-02-17T14:14:10Z</time>
      </trkpt>
      <trkpt lat="43.40177" lon="5.67158">
        <ele>657.67919921875</ele>
        <time>2019-02-17T14:14:12Z</time>
      </trkpt>
      <trkpt lat="43.40189" lon="5.67169">
        <ele>655.27587890625</ele>
        <time>2019-02-17T14:14:24Z</time>
      </trkpt>
      <trkpt lat="43.40193" lon="5.67173">
        <ele>654.79516601562</ele>
        <time>2019-02-17T14:14:30Z</time>
      </trkpt>
      <trkpt lat="43.40195" lon="5.67174">
        <ele>654.79516601562</ele>
        <time>2019-02-17T14:14:32Z</time>
      </trkpt>
      <trkpt lat="43.40214" lon="5.67189">
        <ele>651.43041992188</ele>
        <time>2019-02-17T14:14:53Z</time>
      </trkpt>
      <trkpt lat="43.4023" lon="5.67204">
        <ele>649.02709960938</ele>
        <time>2019-02-17T14:15:11Z</time>
      </trkpt>
      <trkpt lat="43.40252" lon="5.67223">
        <ele>645.66259765625</ele>
        <time>2019-02-17T14:15:33Z</time>
      </trkpt>
      <trkpt lat="43.40264" lon="5.67221">
        <ele>644.220703125</ele>
        <time>2019-02-17T14:15:47Z</time>
      </trkpt>
      <trkpt lat="43.40281" lon="5.67195">
        <ele>644.220703125</ele>
        <time>2019-02-17T14:16:09Z</time>
      </trkpt>
      <trkpt lat="43.40295" lon="5.67163">
        <ele>643.25927734375</ele>
        <time>2019-02-17T14:16:30Z</time>
      </trkpt>
      <trkpt lat="43.40297" lon="5.67123">
        <ele>639.89477539062</ele>
        <time>2019-02-17T14:16:54Z</time>
      </trkpt>
      <trkpt lat="43.40288" lon="5.67089">
        <ele>639.89477539062</ele>
        <time>2019-02-17T14:17:15Z</time>
      </trkpt>
      <trkpt lat="43.40277" lon="5.67052">
        <ele>639.4140625</ele>
        <time>2019-02-17T14:17:39Z</time>
      </trkpt>
      <trkpt lat="43.40277" lon="5.67014">
        <ele>639.89477539062</ele>
        <time>2019-02-17T14:18:03Z</time>
      </trkpt>
      <trkpt lat="43.40272" lon="5.66977">
        <ele>640.37548828125</ele>
        <time>2019-02-17T14:18:26Z</time>
      </trkpt>
      <trkpt lat="43.40268" lon="5.66941">
        <ele>640.85595703125</ele>
        <time>2019-02-17T14:18:47Z</time>
      </trkpt>
      <trkpt lat="43.40271" lon="5.66915">
        <ele>641.33666992188</ele>
        <time>2019-02-17T14:19:04Z</time>
      </trkpt>
      <trkpt lat="43.40273" lon="5.66912">
        <ele>641.33666992188</ele>
        <time>2019-02-17T14:19:07Z</time>
      </trkpt>
      <trkpt lat="43.40279" lon="5.66893">
        <ele>641.8173828125</ele>
        <time>2019-02-17T14:19:21Z</time>
      </trkpt>
      <trkpt lat="43.40291" lon="5.66859">
        <ele>641.33666992188</ele>
        <time>2019-02-17T14:19:43Z</time>
      </trkpt>
      <trkpt lat="43.40295" lon="5.66826">
        <ele>641.33666992188</ele>
        <time>2019-02-17T14:20:03Z</time>
      </trkpt>
      <trkpt lat="43.403" lon="5.66795">
        <ele>639.89477539062</ele>
        <time>2019-02-17T14:20:21Z</time>
      </trkpt>
      <trkpt lat="43.40298" lon="5.66767">
        <ele>638.45288085938</ele>
        <time>2019-02-17T14:20:38Z</time>
      </trkpt>
      <trkpt lat="43.40281" lon="5.66752">
        <ele>636.5302734375</ele>
        <time>2019-02-17T14:20:56Z</time>
      </trkpt>
      <trkpt lat="43.40259" lon="5.66731">
        <ele>634.607421875</ele>
        <time>2019-02-17T14:21:16Z</time>
      </trkpt>
      <trkpt lat="43.40237" lon="5.66709">
        <ele>633.16528320312</ele>
        <time>2019-02-17T14:21:41Z</time>
      </trkpt>
      <trkpt lat="43.40213" lon="5.66688">
        <ele>631.24291992188</ele>
        <time>2019-02-17T14:22:06Z</time>
      </trkpt>
      <trkpt lat="43.402" lon="5.66689">
        <ele>630.28149414062</ele>
        <time>2019-02-17T14:22:19Z</time>
      </trkpt>
      <trkpt lat="43.40194" lon="5.66687">
        <ele>630.28149414062</ele>
        <time>2019-02-17T14:22:35Z</time>
      </trkpt>
      <trkpt lat="43.40191" lon="5.66686">
        <ele>629.80078125</ele>
        <time>2019-02-17T14:22:40Z</time>
      </trkpt>
      <trkpt lat="43.40169" lon="5.66684">
        <ele>628.83959960938</ele>
        <time>2019-02-17T14:22:59Z</time>
      </trkpt>
      <trkpt lat="43.40159" lon="5.66662">
        <ele>627.87817382812</ele>
        <time>2019-02-17T14:23:14Z</time>
      </trkpt>
      <trkpt lat="43.4016" lon="5.66635">
        <ele>626.9169921875</ele>
        <time>2019-02-17T14:23:31Z</time>
      </trkpt>
      <trkpt lat="43.40157" lon="5.66617">
        <ele>625.47485351562</ele>
        <time>2019-02-17T14:23:46Z</time>
      </trkpt>
      <trkpt lat="43.40155" lon="5.66589">
        <ele>623.55249023438</ele>
        <time>2019-02-17T14:24:03Z</time>
      </trkpt>
      <trkpt lat="43.40157" lon="5.66556">
        <ele>622.59106445312</ele>
        <time>2019-02-17T14:24:21Z</time>
      </trkpt>
      <trkpt lat="43.40165" lon="5.66523">
        <ele>620.66845703125</ele>
        <time>2019-02-17T14:24:42Z</time>
      </trkpt>
      <trkpt lat="43.40175" lon="5.66492">
        <ele>618.26489257812</ele>
        <time>2019-02-17T14:25:01Z</time>
      </trkpt>
      <trkpt lat="43.4017" lon="5.66457">
        <ele>615.86181640625</ele>
        <time>2019-02-17T14:25:21Z</time>
      </trkpt>
      <trkpt lat="43.40158" lon="5.66432">
        <ele>614.41967773438</ele>
        <time>2019-02-17T14:25:38Z</time>
      </trkpt>
      <trkpt lat="43.40151" lon="5.66416">
        <ele>612.4970703125</ele>
        <time>2019-02-17T14:25:48Z</time>
      </trkpt>
      <trkpt lat="43.40136" lon="5.66382">
        <ele>609.61328125</ele>
        <time>2019-02-17T14:26:10Z</time>
      </trkpt>
      <trkpt lat="43.40135" lon="5.6638">
        <ele>609.61328125</ele>
        <time>2019-02-17T14:26:12Z</time>
      </trkpt>
      <trkpt lat="43.40125" lon="5.66346">
        <ele>606.72924804688</ele>
        <time>2019-02-17T14:26:33Z</time>
      </trkpt>
      <trkpt lat="43.40115" lon="5.66324">
        <ele>604.806640625</ele>
        <time>2019-02-17T14:26:47Z</time>
      </trkpt>
      <trkpt lat="43.40106" lon="5.66297">
        <ele>603.36450195312</ele>
        <time>2019-02-17T14:27:04Z</time>
      </trkpt>
      <trkpt lat="43.40096" lon="5.66272">
        <ele>601.44189453125</ele>
        <time>2019-02-17T14:27:20Z</time>
      </trkpt>
      <trkpt lat="43.40089" lon="5.6624">
        <ele>598.55786132812</ele>
        <time>2019-02-17T14:27:39Z</time>
      </trkpt>
      <trkpt lat="43.40079" lon="5.6621">
        <ele>595.193359375</ele>
        <time>2019-02-17T14:27:58Z</time>
      </trkpt>
      <trkpt lat="43.40066" lon="5.66187">
        <ele>592.3095703125</ele>
        <time>2019-02-17T14:28:15Z</time>
      </trkpt>
      <trkpt lat="43.40063" lon="5.66179">
        <ele>591.82885742188</ele>
        <time>2019-02-17T14:28:21Z</time>
      </trkpt>
      <trkpt lat="43.40062" lon="5.66177">
        <ele>592.3095703125</ele>
        <time>2019-02-17T14:28:23Z</time>
      </trkpt>
      <trkpt lat="43.40049" lon="5.66141">
        <ele>589.42553710938</ele>
        <time>2019-02-17T14:28:46Z</time>
      </trkpt>
      <trkpt lat="43.40045" lon="5.66122">
        <ele>587.50268554688</ele>
        <time>2019-02-17T14:28:58Z</time>
      </trkpt>
      <trkpt lat="43.40037" lon="5.66085">
        <ele>584.61889648438</ele>
        <time>2019-02-17T14:29:19Z</time>
      </trkpt>
      <trkpt lat="43.40028" lon="5.6606">
        <ele>582.6962890625</ele>
        <time>2019-02-17T14:29:36Z</time>
      </trkpt>
      <trkpt lat="43.40018" lon="5.66028">
        <ele>579.81225585938</ele>
        <time>2019-02-17T14:30:00Z</time>
      </trkpt>
      <trkpt lat="43.4002" lon="5.66024">
        <ele>578.85107421875</ele>
        <time>2019-02-17T14:30:06Z</time>
      </trkpt>
      <trkpt lat="43.40022" lon="5.66021">
        <ele>578.85107421875</ele>
        <time>2019-02-17T14:30:08Z</time>
      </trkpt>
      <trkpt lat="43.40023" lon="5.66015">
        <ele>577.8896484375</ele>
        <time>2019-02-17T14:30:12Z</time>
      </trkpt>
      <trkpt lat="43.40021" lon="5.65991">
        <ele>574.52514648438</ele>
        <time>2019-02-17T14:30:29Z</time>
      </trkpt>
      <trkpt lat="43.40021" lon="5.65982">
        <ele>573.08325195312</ele>
        <time>2019-02-17T14:30:37Z</time>
      </trkpt>
      <trkpt lat="43.40024" lon="5.65974">
        <ele>571.64086914062</ele>
        <time>2019-02-17T14:30:43Z</time>
      </trkpt>
      <trkpt lat="43.40026" lon="5.65968">
        <ele>570.6796875</ele>
        <time>2019-02-17T14:30:48Z</time>
      </trkpt>
      <trkpt lat="43.40039" lon="5.65944">
        <ele>567.79565429688</ele>
        <time>2019-02-17T14:31:05Z</time>
      </trkpt>
      <trkpt lat="43.40046" lon="5.6593">
        <ele>565.392578125</ele>
        <time>2019-02-17T14:31:19Z</time>
      </trkpt>
      <trkpt lat="43.40045" lon="5.65927">
        <ele>565.392578125</ele>
        <time>2019-02-17T14:31:20Z</time>
      </trkpt>
      <trkpt lat="43.4005" lon="5.65922">
        <ele>564.91186523438</ele>
        <time>2019-02-17T14:31:26Z</time>
      </trkpt>
      <trkpt lat="43.40051" lon="5.65919">
        <ele>564.91186523438</ele>
        <time>2019-02-17T14:31:28Z</time>
      </trkpt>
      <trkpt lat="43.40069" lon="5.65897">
        <ele>562.02807617188</ele>
        <time>2019-02-17T14:31:44Z</time>
      </trkpt>
      <trkpt lat="43.4007" lon="5.65893">
        <ele>562.02807617188</ele>
        <time>2019-02-17T14:31:46Z</time>
      </trkpt>
      <trkpt lat="43.40071" lon="5.65887">
        <ele>561.54736328125</ele>
        <time>2019-02-17T14:31:50Z</time>
      </trkpt>
      <trkpt lat="43.40074" lon="5.65878">
        <ele>560.5859375</ele>
        <time>2019-02-17T14:31:55Z</time>
      </trkpt>
      <trkpt lat="43.40072" lon="5.65837">
        <ele>558.66333007812</ele>
        <time>2019-02-17T14:32:19Z</time>
      </trkpt>
      <trkpt lat="43.40068" lon="5.6581">
        <ele>558.18286132812</ele>
        <time>2019-02-17T14:32:35Z</time>
      </trkpt>
      <trkpt lat="43.40067" lon="5.65777">
        <ele>557.22143554688</ele>
        <time>2019-02-17T14:32:54Z</time>
      </trkpt>
      <trkpt lat="43.40062" lon="5.65741">
        <ele>557.7021484375</ele>
        <time>2019-02-17T14:33:17Z</time>
      </trkpt>
      <trkpt lat="43.40055" lon="5.65707">
        <ele>557.22143554688</ele>
        <time>2019-02-17T14:33:37Z</time>
      </trkpt>
      <trkpt lat="43.40057" lon="5.65671">
        <ele>557.22143554688</ele>
        <time>2019-02-17T14:33:58Z</time>
      </trkpt>
      <trkpt lat="43.40068" lon="5.65635">
        <ele>557.22143554688</ele>
        <time>2019-02-17T14:34:20Z</time>
      </trkpt>
      <trkpt lat="43.40082" lon="5.65601">
        <ele>557.22143554688</ele>
        <time>2019-02-17T14:34:42Z</time>
      </trkpt>
      <trkpt lat="43.40091" lon="5.65565">
        <ele>556.26000976562</ele>
        <time>2019-02-17T14:35:03Z</time>
      </trkpt>
      <trkpt lat="43.40106" lon="5.65575">
        <ele>557.94921875</ele>
      </trkpt>
      <trkpt lat="43.40114" lon="5.65572">
        <ele>557.0859375</ele>
      </trkpt>
      <trkpt lat="43.40124" lon="5.65566">
        <ele>556.20703125</ele>
      </trkpt>
      <trkpt lat="43.40132" lon="5.65562">
        <ele>555.53515625</ele>
      </trkpt>
      <trkpt lat="43.4014" lon="5.65558">
        <ele>554.7109375</ele>
      </trkpt>
      <trkpt lat="43.40148" lon="5.65554">
        <ele>553.90625</ele>
      </trkpt>
      <trkpt lat="43.40152" lon="5.65548">
        <ele>553.76953125</ele>
      </trkpt>
      <trkpt lat="43.40157" lon="5.65544">
        <ele>553.41796875</ele>
      </trkpt>
      <trkpt lat="43.40165" lon="5.65538">
        <ele>552.15625</ele>
      </trkpt>
      <trkpt lat="43.40172" lon="5.65535">
        <ele>550.9140625</ele>
      </trkpt>
      <trkpt lat="43.4018" lon="5.65533">
        <ele>549.46484375</ele>
      </trkpt>
      <trkpt lat="43.40187" lon="5.65527">
        <ele>548.609375</ele>
      </trkpt>
      <trkpt lat="43.40195" lon="5.65523">
        <ele>547.44921875</ele>
      </trkpt>
      <trkpt lat="43.40202" lon="5.65517">
        <ele>546.66015625</ele>
      </trkpt>
      <trkpt lat="43.40206" lon="5.65511">
        <ele>546.19921875</ele>
      </trkpt>
      <trkpt lat="43.40213" lon="5.65509">
        <ele>545.19921875</ele>
      </trkpt>
      <trkpt lat="43.40218" lon="5.65505">
        <ele>544.58984375</ele>
      </trkpt>
      <trkpt lat="43.40226" lon="5.65501">
        <ele>543.4140625</ele>
      </trkpt>
      <trkpt lat="43.40233" lon="5.65497">
        <ele>542.48046875</ele>
      </trkpt>
      <trkpt lat="43.40239" lon="5.65492">
        <ele>541.6875</ele>
      </trkpt>
      <trkpt lat="43.40245" lon="5.65488">
        <ele>540.9765625</ele>
      </trkpt>
      <trkpt lat="43.40252" lon="5.65482">
        <ele>540.21484375</ele>
      </trkpt>
      <trkpt lat="43.4026" lon="5.65478">
        <ele>539.19140625</ele>
      </trkpt>
      <trkpt lat="43.40266" lon="5.65476">
        <ele>538.29296875</ele>
      </trkpt>
      <trkpt lat="43.40273" lon="5.6547">
        <ele>537.5078125</ele>
      </trkpt>
      <trkpt lat="43.40281" lon="5.65468">
        <ele>536.265625</ele>
      </trkpt>
      <trkpt lat="43.40288" lon="5.65466">
        <ele>535.3203125</ele>
      </trkpt>
      <trkpt lat="43.40295" lon="5.65462">
        <ele>534.625</ele>
      </trkpt>
      <trkpt lat="43.403" lon="5.65459">
        <ele>534.1484375</ele>
      </trkpt>
      <trkpt lat="43.40307" lon="5.65455">
        <ele>533.03125</ele>
      </trkpt>
      <trkpt lat="43.40311" lon="5.65445">
        <ele>533.03125</ele>
      </trkpt>
      <trkpt lat="43.40314" lon="5.65435">
        <ele>533.37890625</ele>
      </trkpt>
      <trkpt lat="43.40316" lon="5.65425">
        <ele>533.2265625</ele>
      </trkpt>
      <trkpt lat="43.40319" lon="5.65416">
        <ele>533.0078125</ele>
      </trkpt>
      <trkpt lat="43.40322" lon="5.65404">
        <ele>532.9140625</ele>
      </trkpt>
      <trkpt lat="43.40324" lon="5.65394">
        <ele>532.83984375</ele>
      </trkpt>
      <trkpt lat="43.40328" lon="5.65386">
        <ele>532.60546875</ele>
      </trkpt>
      <trkpt lat="43.40332" lon="5.65379">
        <ele>532.453125</ele>
      </trkpt>
      <trkpt lat="43.40336" lon="5.65371">
        <ele>532.12890625</ele>
      </trkpt>
      <trkpt lat="43.40341" lon="5.65361">
        <ele>531.890625</ele>
      </trkpt>
      <trkpt lat="43.40345" lon="5.65353">
        <ele>531.71484375</ele>
      </trkpt>
      <trkpt lat="43.40347" lon="5.65344">
        <ele>531.58984375</ele>
      </trkpt>
      <trkpt lat="43.40353" lon="5.65338">
        <ele>531.203125</ele>
      </trkpt>
      <trkpt lat="43.40357" lon="5.65332">
        <ele>530.91015625</ele>
      </trkpt>
      <trkpt lat="43.40362" lon="5.65326">
        <ele>530.5234375</ele>
      </trkpt>
      <trkpt lat="43.40366" lon="5.65318">
        <ele>530.234375</ele>
      </trkpt>
      <trkpt lat="43.40373" lon="5.65312">
        <ele>529.74609375</ele>
      </trkpt>
      <trkpt lat="43.40378" lon="5.65308">
        <ele>529.359375</ele>
      </trkpt>
      <trkpt lat="43.40386" lon="5.65307">
        <ele>528.6640625</ele>
      </trkpt>
      <trkpt lat="43.40394" lon="5.65307">
        <ele>527.7890625</ele>
      </trkpt>
      <trkpt lat="43.404" lon="5.65303">
        <ele>527.20703125</ele>
      </trkpt>
      <trkpt lat="43.40405" lon="5.65295">
        <ele>526.625</ele>
      </trkpt>
      <trkpt lat="43.40407" lon="5.65285">
        <ele>526.42578125</ele>
      </trkpt>
      <trkpt lat="43.40412" lon="5.65281">
        <ele>525.93359375</ele>
      </trkpt>
      <trkpt lat="43.40417" lon="5.65275">
        <ele>525.54296875</ele>
      </trkpt>
      <trkpt lat="43.40424" lon="5.65273">
        <ele>525.05859375</ele>
      </trkpt>
      <trkpt lat="43.40432" lon="5.65271">
        <ele>524.4765625</ele>
      </trkpt>
      <trkpt lat="43.4044" lon="5.65271">
        <ele>523.83203125</ele>
      </trkpt>
      <trkpt lat="43.40446" lon="5.65266">
        <ele>523.265625</ele>
      </trkpt>
      <trkpt lat="43.40447" lon="5.65254">
        <ele>523.24609375</ele>
      </trkpt>
      <trkpt lat="43.4045" lon="5.65246">
        <ele>523.11328125</ele>
      </trkpt>
      <trkpt lat="43.40452" lon="5.65238">
        <ele>522.99609375</ele>
      </trkpt>
      <trkpt lat="43.40455" lon="5.65227">
        <ele>522.3828125</ele>
      </trkpt>
      <trkpt lat="43.40462" lon="5.65223">
        <ele>521.7578125</ele>
      </trkpt>
      <trkpt lat="43.40467" lon="5.65217">
        <ele>521.17578125</ele>
      </trkpt>
      <trkpt lat="43.40475" lon="5.65213">
        <ele>520.73046875</ele>
      </trkpt>
      <trkpt lat="43.40481" lon="5.65209">
        <ele>520.4921875</ele>
      </trkpt>
      <trkpt lat="43.40485" lon="5.65203">
        <ele>520.34375</ele>
      </trkpt>
      <trkpt lat="43.4049" lon="5.65199">
        <ele>520.15234375</ele>
      </trkpt>
      <trkpt lat="43.40494" lon="5.65192">
        <ele>520.00390625</ele>
      </trkpt>
      <trkpt lat="43.40494" lon="5.6518">
        <ele>520.00390625</ele>
      </trkpt>
      <trkpt lat="43.40497" lon="5.6517">
        <ele>519.859375</ele>
      </trkpt>
      <trkpt lat="43.40501" lon="5.65162">
        <ele>519.70703125</ele>
      </trkpt>
      <trkpt lat="43.40504" lon="5.65155">
        <ele>519.625</ele>
      </trkpt>
      <trkpt lat="43.40505" lon="5.65145">
        <ele>519.2265625</ele>
      </trkpt>
      <trkpt lat="43.40506" lon="5.65141">
        <ele>519.03515625</ele>
      </trkpt>
      <trkpt lat="43.40522" lon="5.65114">
        <ele>517.9765625</ele>
      </trkpt>
      <trkpt lat="43.40525" lon="5.65104">
        <ele>517.79296875</ele>
      </trkpt>
      <trkpt lat="43.40529" lon="5.65096">
        <ele>517.37890625</ele>
      </trkpt>
      <trkpt lat="43.40533" lon="5.65088">
        <ele>516.9375</ele>
      </trkpt>
      <trkpt lat="43.40537" lon="5.65079">
        <ele>516.55078125</ele>
      </trkpt>
      <trkpt lat="43.40541" lon="5.65071">
        <ele>516.24609375</ele>
      </trkpt>
      <trkpt lat="43.40544" lon="5.65059">
        <ele>515.73046875</ele>
      </trkpt>
      <trkpt lat="43.40547" lon="5.65049">
        <ele>515.28125</ele>
      </trkpt>
      <trkpt lat="43.40549" lon="5.65042">
        <ele>515.015625</ele>
      </trkpt>
      <trkpt lat="43.40552" lon="5.65032">
        <ele>514.91796875</ele>
      </trkpt>
      <trkpt lat="43.40556" lon="5.65022">
        <ele>514.7734375</ele>
      </trkpt>
      <trkpt lat="43.40559" lon="5.65014">
        <ele>514.67578125</ele>
      </trkpt>
      <trkpt lat="43.40561" lon="5.65004">
        <ele>514.578125</ele>
      </trkpt>
      <trkpt lat="43.40564" lon="5.64993">
        <ele>514.48046875</ele>
      </trkpt>
      <trkpt lat="43.40567" lon="5.64983">
        <ele>514.3828125</ele>
      </trkpt>
      <trkpt lat="43.40568" lon="5.64971">
        <ele>514.3359375</ele>
      </trkpt>
      <trkpt lat="43.40571" lon="5.64962">
        <ele>514.23828125</ele>
      </trkpt>
      <trkpt lat="43.40575" lon="5.64954">
        <ele>514.06640625</ele>
      </trkpt>
      <trkpt lat="43.40578" lon="5.64946">
        <ele>513.99609375</ele>
      </trkpt>
      <trkpt lat="43.40583" lon="5.6494">
        <ele>513.80078125</ele>
      </trkpt>
      <trkpt lat="43.4059" lon="5.64936">
        <ele>513.55859375</ele>
      </trkpt>
      <trkpt lat="43.40597" lon="5.6493">
        <ele>513.31640625</ele>
      </trkpt>
      <trkpt lat="43.40605" lon="5.64927">
        <ele>513.0234375</ele>
      </trkpt>
      <trkpt lat="43.40609" lon="5.64921">
        <ele>512.87890625</ele>
      </trkpt>
      <trkpt lat="43.40611" lon="5.64913">
        <ele>512.78125</ele>
      </trkpt>
      <trkpt lat="43.40615" lon="5.64907">
        <ele>512.63671875</ele>
      </trkpt>
      <trkpt lat="43.40618" lon="5.64897">
        <ele>512.6796875</ele>
      </trkpt>
      <trkpt lat="43.40623" lon="5.64893">
        <ele>512.63671875</ele>
      </trkpt>
      <trkpt lat="43.40626" lon="5.64886">
        <ele>512.79296875</ele>
      </trkpt>
      <trkpt lat="43.40628" lon="5.64874">
        <ele>513</ele>
      </trkpt>
      <trkpt lat="43.40632" lon="5.64866">
        <ele>513</ele>
      </trkpt>
      <trkpt lat="43.40636" lon="5.64858">
        <ele>512.8828125</ele>
      </trkpt>
      <trkpt lat="43.4064" lon="5.64851">
        <ele>512.76171875</ele>
      </trkpt>
      <trkpt lat="43.40644" lon="5.64843">
        <ele>512.6171875</ele>
      </trkpt>
      <trkpt lat="43.40645" lon="5.64833">
        <ele>512.5703125</ele>
      </trkpt>
      <trkpt lat="43.40649" lon="5.64823">
        <ele>512.421875</ele>
      </trkpt>
      <trkpt lat="43.4065" lon="5.64812">
        <ele>512.375</ele>
      </trkpt>
      <trkpt lat="43.40654" lon="5.64802">
        <ele>512.23046875</ele>
      </trkpt>
      <trkpt lat="43.40657" lon="5.64792">
        <ele>512.1328125</ele>
      </trkpt>
      <trkpt lat="43.4066" lon="5.64784">
        <ele>512.03515625</ele>
      </trkpt>
      <trkpt lat="43.40661" lon="5.64775">
        <ele>511.97265625</ele>
      </trkpt>
      <trkpt lat="43.40664" lon="5.64767">
        <ele>511.76953125</ele>
      </trkpt>
      <trkpt lat="43.40667" lon="5.64757">
        <ele>511.30078125</ele>
      </trkpt>
      <trkpt lat="43.40671" lon="5.64751">
        <ele>510.92578125</ele>
      </trkpt>
      <trkpt lat="43.40676" lon="5.64745">
        <ele>510.55078125</ele>
      </trkpt>
      <trkpt lat="43.4068" lon="5.64736">
        <ele>510.3984375</ele>
      </trkpt>
      <trkpt lat="43.40685" lon="5.64728">
        <ele>510.4765625</ele>
      </trkpt>
      <trkpt lat="43.40691" lon="5.64718">
        <ele>510.62109375</ele>
      </trkpt>
      <trkpt lat="43.40692" lon="5.64706">
        <ele>510.73828125</ele>
      </trkpt>
      <trkpt lat="43.40692" lon="5.64695">
        <ele>510.73828125</ele>
      </trkpt>
      <trkpt lat="43.40692" lon="5.64681">
        <ele>510.73828125</ele>
      </trkpt>
      <trkpt lat="43.40691" lon="5.64669">
        <ele>510.8359375</ele>
      </trkpt>
      <trkpt lat="43.4069" lon="5.64658">
        <ele>510.93359375</ele>
      </trkpt>
      <trkpt lat="43.40688" lon="5.64648">
        <ele>510.7109375</ele>
      </trkpt>
      <trkpt lat="43.40688" lon="5.64636">
        <ele>510.2890625</ele>
      </trkpt>
      <trkpt lat="43.4069" lon="5.64625">
        <ele>509.8359375</ele>
      </trkpt>
      <trkpt lat="43.40694" lon="5.64617">
        <ele>509.40625</ele>
      </trkpt>
      <trkpt lat="43.40699" lon="5.64613">
        <ele>509.07421875</ele>
      </trkpt>
      <trkpt lat="43.407" lon="5.64609">
        <ele>508.8828125</ele>
      </trkpt>
      <trkpt lat="43.40707" lon="5.64603">
        <ele>505.31018066406</ele>
        <time>2019-02-17T15:28:34Z</time>
      </trkpt>
      <trkpt lat="43.40719" lon="5.64611">
        <ele>505.31018066406</ele>
        <time>2019-02-17T15:28:45Z</time>
      </trkpt>
      <trkpt lat="43.40732" lon="5.64634">
        <ele>505.31018066406</ele>
        <time>2019-02-17T15:29:02Z</time>
      </trkpt>
      <trkpt lat="43.40743" lon="5.6468">
        <ele>505.31018066406</ele>
        <time>2019-02-17T15:29:30Z</time>
      </trkpt>
      <trkpt lat="43.40755" lon="5.64728">
        <ele>504.34887695312</ele>
        <time>2019-02-17T15:29:58Z</time>
      </trkpt>
      <trkpt lat="43.40764" lon="5.64769">
        <ele>502.90673828125</ele>
        <time>2019-02-17T15:30:23Z</time>
      </trkpt>
      <trkpt lat="43.40772" lon="5.64806">
        <ele>500.02294921875</ele>
        <time>2019-02-17T15:30:44Z</time>
      </trkpt>
      <trkpt lat="43.40782" lon="5.64838">
        <ele>497.61962890625</ele>
        <time>2019-02-17T15:31:06Z</time>
      </trkpt>
      <trkpt lat="43.40784" lon="5.64844">
        <ele>497.13891601562</ele>
        <time>2019-02-17T15:31:17Z</time>
      </trkpt>
      <trkpt lat="43.40788" lon="5.64869">
        <ele>494.73559570312</ele>
        <time>2019-02-17T15:31:35Z</time>
      </trkpt>
      <trkpt lat="43.40792" lon="5.64887">
        <ele>493.29357910156</ele>
        <time>2019-02-17T15:31:52Z</time>
      </trkpt>
      <trkpt lat="43.40793" lon="5.6489">
        <ele>493.29357910156</ele>
        <time>2019-02-17T15:31:54Z</time>
      </trkpt>
      <trkpt lat="43.40799" lon="5.64923">
        <ele>491.85168457031</ele>
        <time>2019-02-17T15:32:14Z</time>
      </trkpt>
      <trkpt lat="43.40808" lon="5.64958">
        <ele>490.40979003906</ele>
        <time>2019-02-17T15:32:38Z</time>
      </trkpt>
      <trkpt lat="43.40819" lon="5.64991">
        <ele>488.00646972656</ele>
        <time>2019-02-17T15:33:02Z</time>
      </trkpt>
      <trkpt lat="43.40829" lon="5.6502">
        <ele>486.08374023438</ele>
        <time>2019-02-17T15:33:21Z</time>
      </trkpt>
      <trkpt lat="43.40838" lon="5.65062">
        <ele>482.71923828125</ele>
        <time>2019-02-17T15:33:47Z</time>
      </trkpt>
      <trkpt lat="43.40839" lon="5.65094">
        <ele>481.27722167969</ele>
        <time>2019-02-17T15:34:06Z</time>
      </trkpt>
      <trkpt lat="43.40838" lon="5.65118">
        <ele>480.79663085938</ele>
        <time>2019-02-17T15:34:20Z</time>
      </trkpt>
      <trkpt lat="43.4083" lon="5.65166">
        <ele>479.3544921875</ele>
        <time>2019-02-17T15:34:48Z</time>
      </trkpt>
      <trkpt lat="43.40834" lon="5.6521">
        <ele>475.98986816406</ele>
        <time>2019-02-17T15:35:14Z</time>
      </trkpt>
      <trkpt lat="43.40852" lon="5.65246">
        <ele>473.58666992188</ele>
        <time>2019-02-17T15:35:40Z</time>
      </trkpt>
      <trkpt lat="43.40864" lon="5.65268">
        <ele>471.66394042969</ele>
        <time>2019-02-17T15:35:56Z</time>
      </trkpt>
      <trkpt lat="43.40865" lon="5.6527">
        <ele>471.66394042969</ele>
        <time>2019-02-17T15:35:58Z</time>
      </trkpt>
      <trkpt lat="43.40878" lon="5.65304">
        <ele>468.78002929688</ele>
        <time>2019-02-17T15:36:22Z</time>
      </trkpt>
      <trkpt lat="43.40887" lon="5.65334">
        <ele>465.41552734375</ele>
        <time>2019-02-17T15:36:43Z</time>
      </trkpt>
      <trkpt lat="43.40891" lon="5.65367">
        <ele>463.01208496094</ele>
        <time>2019-02-17T15:37:05Z</time>
      </trkpt>
      <trkpt lat="43.40891" lon="5.65371">
        <ele>462.53137207031</ele>
        <time>2019-02-17T15:37:08Z</time>
      </trkpt>
      <trkpt lat="43.40891" lon="5.65378">
        <ele>462.05078125</ele>
        <time>2019-02-17T15:37:12Z</time>
      </trkpt>
      <trkpt lat="43.40884" lon="5.65403">
        <ele>459.64758300781</ele>
        <time>2019-02-17T15:37:30Z</time>
      </trkpt>
      <trkpt lat="43.40865" lon="5.65416">
        <ele>458.20556640625</ele>
        <time>2019-02-17T15:37:49Z</time>
      </trkpt>
      <trkpt lat="43.40842" lon="5.65418">
        <ele>456.76354980469</ele>
        <time>2019-02-17T15:38:09Z</time>
      </trkpt>
      <trkpt lat="43.40824" lon="5.65412">
        <ele>456.28295898438</ele>
        <time>2019-02-17T15:38:24Z</time>
      </trkpt>
      <trkpt lat="43.40802" lon="5.65408">
        <ele>456.28295898438</ele>
        <time>2019-02-17T15:38:42Z</time>
      </trkpt>
      <trkpt lat="43.40772" lon="5.65414">
        <ele>456.76354980469</ele>
        <time>2019-02-17T15:39:04Z</time>
      </trkpt>
      <trkpt lat="43.40756" lon="5.6542">
        <ele>456.28295898438</ele>
        <time>2019-02-17T15:39:18Z</time>
      </trkpt>
      <trkpt lat="43.40732" lon="5.65429">
        <ele>456.28295898438</ele>
        <time>2019-02-17T15:39:36Z</time>
      </trkpt>
      <trkpt lat="43.40717" lon="5.65446">
        <ele>454.36022949219</ele>
        <time>2019-02-17T15:39:52Z</time>
      </trkpt>
      <trkpt lat="43.40714" lon="5.65448">
        <ele>453.87963867188</ele>
        <time>2019-02-17T15:39:55Z</time>
      </trkpt>
      <trkpt lat="43.40714" lon="5.65457">
        <ele>452.91821289062</ele>
        <time>2019-02-17T15:40:01Z</time>
      </trkpt>
      <trkpt lat="43.4072" lon="5.65465">
        <ele>452.91821289062</ele>
        <time>2019-02-17T15:40:07Z</time>
      </trkpt>
      <trkpt lat="43.40749" lon="5.65482">
        <ele>452.43762207031</ele>
        <time>2019-02-17T15:40:30Z</time>
      </trkpt>
      <trkpt lat="43.40752" lon="5.65485">
        <ele>451.95703125</ele>
        <time>2019-02-17T15:40:34Z</time>
      </trkpt>
      <trkpt lat="43.4077" lon="5.65485">
        <ele>450.51501464844</ele>
        <time>2019-02-17T15:40:49Z</time>
      </trkpt>
      <trkpt lat="43.40797" lon="5.6549">
        <ele>449.07299804688</ele>
        <time>2019-02-17T15:41:09Z</time>
      </trkpt>
      <trkpt lat="43.40819" lon="5.655">
        <ele>447.15026855469</ele>
        <time>2019-02-17T15:41:27Z</time>
      </trkpt>
      <trkpt lat="43.40836" lon="5.65517">
        <ele>445.22766113281</ele>
        <time>2019-02-17T15:41:45Z</time>
      </trkpt>
      <trkpt lat="43.40858" lon="5.65541">
        <ele>443.78576660156</ele>
        <time>2019-02-17T15:42:08Z</time>
      </trkpt>
      <trkpt lat="43.40865" lon="5.65577">
        <ele>442.82446289062</ele>
        <time>2019-02-17T15:42:29Z</time>
      </trkpt>
      <trkpt lat="43.40864" lon="5.65579">
        <ele>442.34387207031</ele>
        <time>2019-02-17T15:42:30Z</time>
      </trkpt>
      <trkpt lat="43.40864" lon="5.65606">
        <ele>440.90185546875</ele>
        <time>2019-02-17T15:42:46Z</time>
      </trkpt>
      <trkpt lat="43.40879" lon="5.65623">
        <ele>439.45971679688</ele>
        <time>2019-02-17T15:43:05Z</time>
      </trkpt>
      <trkpt lat="43.40904" lon="5.65645">
        <ele>437.05651855469</ele>
        <time>2019-02-17T15:43:28Z</time>
      </trkpt>
      <trkpt lat="43.40914" lon="5.65655">
        <ele>436.57592773438</ele>
        <time>2019-02-17T15:43:37Z</time>
      </trkpt>
      <trkpt lat="43.40916" lon="5.65657">
        <ele>436.57592773438</ele>
        <time>2019-02-17T15:43:39Z</time>
      </trkpt>
      <trkpt lat="43.40919" lon="5.6566">
        <ele>436.57592773438</ele>
        <time>2019-02-17T15:43:42Z</time>
      </trkpt>
      <trkpt lat="43.40938" lon="5.65687">
        <ele>435.13391113281</ele>
        <time>2019-02-17T15:44:05Z</time>
      </trkpt>
      <trkpt lat="43.40948" lon="5.65713">
        <ele>433.69189453125</ele>
        <time>2019-02-17T15:44:24Z</time>
      </trkpt>
      <trkpt lat="43.40949" lon="5.65715">
        <ele>432.73071289062</ele>
        <time>2019-02-17T15:44:27Z</time>
      </trkpt>
      <trkpt lat="43.40952" lon="5.65752">
        <ele>430.80798339844</ele>
        <time>2019-02-17T15:44:48Z</time>
      </trkpt>
      <trkpt lat="43.40957" lon="5.65786">
        <ele>428.40466308594</ele>
        <time>2019-02-17T15:45:09Z</time>
      </trkpt>
      <trkpt lat="43.40959" lon="5.65809">
        <ele>427.443359375</ele>
        <time>2019-02-17T15:45:24Z</time>
      </trkpt>
      <trkpt lat="43.40962" lon="5.65838">
        <ele>425.04016113281</ele>
        <time>2019-02-17T15:45:42Z</time>
      </trkpt>
      <trkpt lat="43.40962" lon="5.65851">
        <ele>424.55944824219</ele>
        <time>2019-02-17T15:45:50Z</time>
      </trkpt>
      <trkpt lat="43.40959" lon="5.65895">
        <ele>424.07873535156</ele>
        <time>2019-02-17T15:46:15Z</time>
      </trkpt>
      <trkpt lat="43.40958" lon="5.65932">
        <ele>422.63671875</ele>
        <time>2019-02-17T15:46:39Z</time>
      </trkpt>
      <trkpt lat="43.4096" lon="5.65964">
        <ele>420.2333984375</ele>
        <time>2019-02-17T15:46:58Z</time>
      </trkpt>
      <trkpt lat="43.40972" lon="5.6599">
        <ele>419.75280761719</ele>
        <time>2019-02-17T15:47:17Z</time>
      </trkpt>
      <trkpt lat="43.40997" lon="5.66015">
        <ele>419.27221679688</ele>
        <time>2019-02-17T15:47:42Z</time>
      </trkpt>
      <trkpt lat="43.41008" lon="5.66041">
        <ele>417.83020019531</ele>
        <time>2019-02-17T15:48:01Z</time>
      </trkpt>
      <trkpt lat="43.41024" lon="5.66073">
        <ele>415.42687988281</ele>
        <time>2019-02-17T15:48:23Z</time>
      </trkpt>
      <trkpt lat="43.41041" lon="5.66107">
        <ele>412.54284667969</ele>
        <time>2019-02-17T15:48:47Z</time>
      </trkpt>
      <trkpt lat="43.41041" lon="5.66114">
        <ele>412.06225585938</ele>
        <time>2019-02-17T15:48:52Z</time>
      </trkpt>
      <trkpt lat="43.4104" lon="5.66142">
        <ele>410.62023925781</ele>
        <time>2019-02-17T15:49:11Z</time>
      </trkpt>
      <trkpt lat="43.41046" lon="5.66178">
        <ele>409.17834472656</ele>
        <time>2019-02-17T15:49:35Z</time>
      </trkpt>
      <trkpt lat="43.41053" lon="5.6621">
        <ele>408.69763183594</ele>
        <time>2019-02-17T15:49:55Z</time>
      </trkpt>
      <trkpt lat="43.41057" lon="5.66223">
        <ele>408.69763183594</ele>
        <time>2019-02-17T15:50:12Z</time>
      </trkpt>
      <trkpt lat="43.41069" lon="5.66251">
        <ele>408.69763183594</ele>
        <time>2019-02-17T15:50:33Z</time>
      </trkpt>
      <trkpt lat="43.41081" lon="5.66268">
        <ele>409.65905761719</ele>
        <time>2019-02-17T15:50:49Z</time>
      </trkpt>
      <trkpt lat="43.41094" lon="5.66299">
        <ele>410.1396484375</ele>
        <time>2019-02-17T15:51:09Z</time>
      </trkpt>
      <trkpt lat="43.41098" lon="5.66319">
        <ele>408.69763183594</ele>
        <time>2019-02-17T15:51:22Z</time>
      </trkpt>
      <trkpt lat="43.41103" lon="5.66347">
        <ele>408.21704101562</ele>
        <time>2019-02-17T15:51:37Z</time>
      </trkpt>
      <trkpt lat="43.41103" lon="5.6635">
        <ele>407.736328125</ele>
        <time>2019-02-17T15:51:39Z</time>
      </trkpt>
      <trkpt lat="43.41105" lon="5.66375">
        <ele>407.736328125</ele>
        <time>2019-02-17T15:51:54Z</time>
      </trkpt>
      <trkpt lat="43.41105" lon="5.664">
        <ele>406.77490234375</ele>
        <time>2019-02-17T15:52:11Z</time>
      </trkpt>
      <trkpt lat="43.41105" lon="5.66408">
        <ele>406.29431152344</ele>
        <time>2019-02-17T15:52:15Z</time>
      </trkpt>
      <trkpt lat="43.41104" lon="5.6642">
        <ele>406.29431152344</ele>
        <time>2019-02-17T15:52:23Z</time>
      </trkpt>
      <trkpt lat="43.41105" lon="5.66424">
        <ele>406.29431152344</ele>
        <time>2019-02-17T15:52:25Z</time>
      </trkpt>
      <trkpt lat="43.41107" lon="5.66428">
        <ele>406.29431152344</ele>
        <time>2019-02-17T15:52:28Z</time>
      </trkpt>
      <trkpt lat="43.41114" lon="5.66442">
        <ele>406.77490234375</ele>
        <time>2019-02-17T15:52:39Z</time>
      </trkpt>
      <trkpt lat="43.41126" lon="5.66461">
        <ele>406.29431152344</ele>
        <time>2019-02-17T15:52:53Z</time>
      </trkpt>
      <trkpt lat="43.41138" lon="5.66482">
        <ele>405.81372070312</ele>
        <time>2019-02-17T15:53:08Z</time>
      </trkpt>
      <trkpt lat="43.41142" lon="5.66492">
        <ele>405.81372070312</ele>
        <time>2019-02-17T15:53:16Z</time>
      </trkpt>
      <trkpt lat="43.41156" lon="5.66518">
        <ele>403.89111328125</ele>
        <time>2019-02-17T15:53:32Z</time>
      </trkpt>
      <trkpt lat="43.41164" lon="5.66538">
        <ele>403.89111328125</ele>
        <time>2019-02-17T15:53:45Z</time>
      </trkpt>
      <trkpt lat="43.41174" lon="5.66556">
        <ele>402.9296875</ele>
        <time>2019-02-17T15:54:01Z</time>
      </trkpt>
      <trkpt lat="43.41193" lon="5.66581">
        <ele>402.44909667969</ele>
        <time>2019-02-17T15:54:21Z</time>
      </trkpt>
      <trkpt lat="43.41196" lon="5.66589">
        <ele>401.96850585938</ele>
        <time>2019-02-17T15:54:27Z</time>
      </trkpt>
      <trkpt lat="43.41203" lon="5.666">
        <ele>401.48779296875</ele>
        <time>2019-02-17T15:54:36Z</time>
      </trkpt>
      <trkpt lat="43.41219" lon="5.66615">
        <ele>401.48779296875</ele>
        <time>2019-02-17T15:54:51Z</time>
      </trkpt>
      <trkpt lat="43.41223" lon="5.66618">
        <ele>401.00708007812</ele>
        <time>2019-02-17T15:54:55Z</time>
      </trkpt>
      <trkpt lat="43.41232" lon="5.66626">
        <ele>400.52648925781</ele>
        <time>2019-02-17T15:55:06Z</time>
      </trkpt>
      <trkpt lat="43.41256" lon="5.66647">
        <ele>401.48779296875</ele>
        <time>2019-02-17T15:55:27Z</time>
      </trkpt>
      <trkpt lat="43.41269" lon="5.66656">
        <ele>401.48779296875</ele>
        <time>2019-02-17T15:55:41Z</time>
      </trkpt>
      <trkpt lat="43.41272" lon="5.66659">
        <ele>402.44909667969</ele>
        <time>2019-02-17T15:55:44Z</time>
      </trkpt>
      <trkpt lat="43.41283" lon="5.66666">
        <ele>402.9296875</ele>
        <time>2019-02-17T15:55:53Z</time>
      </trkpt>
      <trkpt lat="43.41297" lon="5.66676">
        <ele>404.37170410156</ele>
        <time>2019-02-17T15:56:07Z</time>
      </trkpt>
      <trkpt lat="43.41301" lon="5.66678">
        <ele>404.37170410156</ele>
        <time>2019-02-17T15:56:12Z</time>
      </trkpt>
      <trkpt lat="43.41315" lon="5.66689">
        <ele>405.81372070312</ele>
        <time>2019-02-17T15:56:24Z</time>
      </trkpt>
      <trkpt lat="43.41318" lon="5.66691">
        <ele>406.29431152344</ele>
        <time>2019-02-17T15:56:28Z</time>
      </trkpt>
      <trkpt lat="43.41327" lon="5.66701">
        <ele>408.21704101562</ele>
        <time>2019-02-17T15:56:41Z</time>
      </trkpt>
      <trkpt lat="43.41335" lon="5.66715">
        <ele>410.1396484375</ele>
        <time>2019-02-17T15:56:54Z</time>
      </trkpt>
      <trkpt lat="43.41341" lon="5.66727">
        <ele>412.06225585938</ele>
        <time>2019-02-17T15:57:06Z</time>
      </trkpt>
      <trkpt lat="43.41347" lon="5.6673">
        <ele>412.54284667969</ele>
        <time>2019-02-17T15:57:14Z</time>
      </trkpt>
      <trkpt lat="43.41349" lon="5.66731">
        <ele>413.98486328125</ele>
        <time>2019-02-17T15:57:17Z</time>
      </trkpt>
      <trkpt lat="43.41356" lon="5.66739">
        <ele>413.98486328125</ele>
        <time>2019-02-17T15:57:25Z</time>
      </trkpt>
      <trkpt lat="43.4136" lon="5.66732">
        <ele>413.98486328125</ele>
        <time>2019-02-17T15:57:30Z</time>
      </trkpt>
      <trkpt lat="43.41371" lon="5.6671">
        <ele>414.46545410156</ele>
        <time>2019-02-17T15:57:47Z</time>
      </trkpt>
      <trkpt lat="43.41377" lon="5.66694">
        <ele>413.98486328125</ele>
        <time>2019-02-17T15:58:00Z</time>
      </trkpt>
    </trkseg>
  </trk>
</gpx>